<?xml version="1.0" encoding="UTF-8" standalone="no" ?>
<gpx xmlns="http://www.topografix.com/GPX/1/1" xmlns:xsi="http://www.w3.org/2001/XMLSchema-instance" xsi:schemaLocation="http://www.topografix.com/GPX/1/1 http://www.topografix.com/GPX/1/1/gpx.xsd" version="1.1" creator="VisuGPX - https://www.visugpx.com">
  <metadata>
    <name>2011-09-24 Beauchastel-col Mure-Col Aurelle-St Fortunat</name>
    <desc><![CDATA[Sur les traces de la rando des collines de l\'eyrieux 2011
Mais cette fois-ci sous le soleil
Magique]]></desc>
  </metadata>
  <trk>
    <name><![CDATA[2011-09-24 VTT beauchastel]]></name>
    <cmt><![CDATA[24 sept. 2011 07:57:39]]></cmt>
    <trkseg>
      <trkpt lat="44.82625" lon="4.7953">
        <ele>96</ele>
        <time>2011-09-24T05:57:39Z</time>
      </trkpt>
      <trkpt lat="44.82622" lon="4.79533">
        <ele>97</ele>
        <time>2011-09-24T05:58:22Z</time>
      </trkpt>
      <trkpt lat="44.82619" lon="4.79538">
        <ele>98</ele>
        <time>2011-09-24T05:58:26Z</time>
      </trkpt>
      <trkpt lat="44.82618" lon="4.79545">
        <ele>98</ele>
        <time>2011-09-24T05:58:34Z</time>
      </trkpt>
      <trkpt lat="44.82622" lon="4.79553">
        <ele>98</ele>
        <time>2011-09-24T05:58:43Z</time>
      </trkpt>
      <trkpt lat="44.82627" lon="4.79554">
        <ele>99</ele>
        <time>2011-09-24T05:58:46Z</time>
      </trkpt>
      <trkpt lat="44.82623" lon="4.79545">
        <ele>99</ele>
        <time>2011-09-24T05:58:52Z</time>
      </trkpt>
      <trkpt lat="44.82621" lon="4.79545">
        <ele>100</ele>
        <time>2011-09-24T05:59:44Z</time>
      </trkpt>
      <trkpt lat="44.82619" lon="4.79546">
        <ele>100</ele>
        <time>2011-09-24T06:00:37Z</time>
      </trkpt>
      <trkpt lat="44.82618" lon="4.79546">
        <ele>105</ele>
        <time>2011-09-24T06:07:01Z</time>
      </trkpt>
      <trkpt lat="44.82617" lon="4.79553">
        <ele>105</ele>
        <time>2011-09-24T06:07:09Z</time>
      </trkpt>
      <trkpt lat="44.82618" lon="4.79561">
        <ele>105</ele>
        <time>2011-09-24T06:07:15Z</time>
      </trkpt>
      <trkpt lat="44.82611" lon="4.79578">
        <ele>105</ele>
        <time>2011-09-24T06:07:24Z</time>
      </trkpt>
      <trkpt lat="44.82613" lon="4.79607">
        <ele>105</ele>
        <time>2011-09-24T06:07:36Z</time>
      </trkpt>
      <trkpt lat="44.8266" lon="4.79638">
        <ele>106</ele>
        <time>2011-09-24T06:08:07Z</time>
      </trkpt>
      <trkpt lat="44.82669" lon="4.79646">
        <ele>106</ele>
        <time>2011-09-24T06:08:13Z</time>
      </trkpt>
      <trkpt lat="44.82673" lon="4.79643">
        <ele>106</ele>
        <time>2011-09-24T06:08:17Z</time>
      </trkpt>
      <trkpt lat="44.82679" lon="4.7964">
        <ele>106</ele>
        <time>2011-09-24T06:08:19Z</time>
      </trkpt>
      <trkpt lat="44.82683" lon="4.79632">
        <ele>107</ele>
        <time>2011-09-24T06:08:21Z</time>
      </trkpt>
      <trkpt lat="44.82736" lon="4.79445">
        <ele>109</ele>
        <time>2011-09-24T06:08:52Z</time>
      </trkpt>
      <trkpt lat="44.82771" lon="4.79349">
        <ele>109</ele>
        <time>2011-09-24T06:09:24Z</time>
      </trkpt>
      <trkpt lat="44.8279" lon="4.79238">
        <ele>110</ele>
        <time>2011-09-24T06:09:54Z</time>
      </trkpt>
      <trkpt lat="44.82802" lon="4.79154">
        <ele>111</ele>
        <time>2011-09-24T06:10:25Z</time>
      </trkpt>
      <trkpt lat="44.82833" lon="4.7909">
        <ele>114</ele>
        <time>2011-09-24T06:10:55Z</time>
      </trkpt>
      <trkpt lat="44.8288" lon="4.7906">
        <ele>117</ele>
        <time>2011-09-24T06:11:25Z</time>
      </trkpt>
      <trkpt lat="44.82881" lon="4.79053">
        <ele>118</ele>
        <time>2011-09-24T06:11:28Z</time>
      </trkpt>
      <trkpt lat="44.82878" lon="4.79038">
        <ele>118</ele>
        <time>2011-09-24T06:11:34Z</time>
      </trkpt>
      <trkpt lat="44.82861" lon="4.78994">
        <ele>120</ele>
        <time>2011-09-24T06:11:55Z</time>
      </trkpt>
      <trkpt lat="44.82867" lon="4.78982">
        <ele>121</ele>
        <time>2011-09-24T06:11:58Z</time>
      </trkpt>
      <trkpt lat="44.82861" lon="4.7898">
        <ele>121</ele>
        <time>2011-09-24T06:12:00Z</time>
      </trkpt>
      <trkpt lat="44.8286" lon="4.78972">
        <ele>121</ele>
        <time>2011-09-24T06:12:03Z</time>
      </trkpt>
      <trkpt lat="44.82857" lon="4.78933">
        <ele>123</ele>
        <time>2011-09-24T06:12:18Z</time>
      </trkpt>
      <trkpt lat="44.82867" lon="4.78916">
        <ele>125</ele>
        <time>2011-09-24T06:12:27Z</time>
      </trkpt>
      <trkpt lat="44.82919" lon="4.78889">
        <ele>130</ele>
        <time>2011-09-24T06:12:57Z</time>
      </trkpt>
      <trkpt lat="44.82982" lon="4.78888">
        <ele>135</ele>
        <time>2011-09-24T06:13:32Z</time>
      </trkpt>
      <trkpt lat="44.83043" lon="4.78869">
        <ele>139</ele>
        <time>2011-09-24T06:14:04Z</time>
      </trkpt>
      <trkpt lat="44.83104" lon="4.78898">
        <ele>143</ele>
        <time>2011-09-24T06:14:38Z</time>
      </trkpt>
      <trkpt lat="44.83167" lon="4.78926">
        <ele>145</ele>
        <time>2011-09-24T06:15:10Z</time>
      </trkpt>
      <trkpt lat="44.83235" lon="4.7893">
        <ele>146</ele>
        <time>2011-09-24T06:15:45Z</time>
      </trkpt>
      <trkpt lat="44.83301" lon="4.78898">
        <ele>150</ele>
        <time>2011-09-24T06:16:16Z</time>
      </trkpt>
      <trkpt lat="44.83363" lon="4.78868">
        <ele>154</ele>
        <time>2011-09-24T06:16:46Z</time>
      </trkpt>
      <trkpt lat="44.83397" lon="4.7884">
        <ele>157</ele>
        <time>2011-09-24T06:17:02Z</time>
      </trkpt>
      <trkpt lat="44.83398" lon="4.78834">
        <ele>157</ele>
        <time>2011-09-24T06:17:04Z</time>
      </trkpt>
      <trkpt lat="44.83394" lon="4.78819">
        <ele>158</ele>
        <time>2011-09-24T06:17:09Z</time>
      </trkpt>
      <trkpt lat="44.83386" lon="4.78814">
        <ele>159</ele>
        <time>2011-09-24T06:17:14Z</time>
      </trkpt>
      <trkpt lat="44.83315" lon="4.7883">
        <ele>163</ele>
        <time>2011-09-24T06:17:47Z</time>
      </trkpt>
      <trkpt lat="44.83252" lon="4.78833">
        <ele>166</ele>
        <time>2011-09-24T06:18:17Z</time>
      </trkpt>
      <trkpt lat="44.83187" lon="4.7881">
        <ele>168</ele>
        <time>2011-09-24T06:18:48Z</time>
      </trkpt>
      <trkpt lat="44.8313" lon="4.7876">
        <ele>170</ele>
        <time>2011-09-24T06:19:19Z</time>
      </trkpt>
      <trkpt lat="44.83079" lon="4.78699">
        <ele>173</ele>
        <time>2011-09-24T06:19:51Z</time>
      </trkpt>
      <trkpt lat="44.83082" lon="4.78673">
        <ele>174</ele>
        <time>2011-09-24T06:20:00Z</time>
      </trkpt>
      <trkpt lat="44.83093" lon="4.78624">
        <ele>177</ele>
        <time>2011-09-24T06:20:17Z</time>
      </trkpt>
      <trkpt lat="44.83077" lon="4.78546">
        <ele>181</ele>
        <time>2011-09-24T06:20:44Z</time>
      </trkpt>
      <trkpt lat="44.83092" lon="4.78518">
        <ele>183</ele>
        <time>2011-09-24T06:20:56Z</time>
      </trkpt>
      <trkpt lat="44.83104" lon="4.78499">
        <ele>185</ele>
        <time>2011-09-24T06:21:05Z</time>
      </trkpt>
      <trkpt lat="44.83105" lon="4.7849">
        <ele>186</ele>
        <time>2011-09-24T06:21:08Z</time>
      </trkpt>
      <trkpt lat="44.83109" lon="4.78397">
        <ele>192</ele>
        <time>2011-09-24T06:21:41Z</time>
      </trkpt>
      <trkpt lat="44.83164" lon="4.78352">
        <ele>198</ele>
        <time>2011-09-24T06:22:13Z</time>
      </trkpt>
      <trkpt lat="44.83195" lon="4.78342">
        <ele>200</ele>
        <time>2011-09-24T06:22:28Z</time>
      </trkpt>
      <trkpt lat="44.83202" lon="4.78333">
        <ele>201</ele>
        <time>2011-09-24T06:22:33Z</time>
      </trkpt>
      <trkpt lat="44.83203" lon="4.78326">
        <ele>201</ele>
        <time>2011-09-24T06:22:36Z</time>
      </trkpt>
      <trkpt lat="44.83201" lon="4.78317">
        <ele>202</ele>
        <time>2011-09-24T06:22:40Z</time>
      </trkpt>
      <trkpt lat="44.83172" lon="4.7826">
        <ele>205</ele>
        <time>2011-09-24T06:23:05Z</time>
      </trkpt>
      <trkpt lat="44.83177" lon="4.78246">
        <ele>205</ele>
        <time>2011-09-24T06:23:11Z</time>
      </trkpt>
      <trkpt lat="44.83228" lon="4.78191">
        <ele>210</ele>
        <time>2011-09-24T06:23:44Z</time>
      </trkpt>
      <trkpt lat="44.83277" lon="4.78135">
        <ele>216</ele>
        <time>2011-09-24T06:24:15Z</time>
      </trkpt>
      <trkpt lat="44.83289" lon="4.78117">
        <ele>217</ele>
        <time>2011-09-24T06:24:24Z</time>
      </trkpt>
      <trkpt lat="44.8329" lon="4.7811">
        <ele>218</ele>
        <time>2011-09-24T06:24:27Z</time>
      </trkpt>
      <trkpt lat="44.83288" lon="4.78103">
        <ele>218</ele>
        <time>2011-09-24T06:24:30Z</time>
      </trkpt>
      <trkpt lat="44.83246" lon="4.78038">
        <ele>223</ele>
        <time>2011-09-24T06:25:01Z</time>
      </trkpt>
      <trkpt lat="44.83249" lon="4.78005">
        <ele>225</ele>
        <time>2011-09-24T06:25:12Z</time>
      </trkpt>
      <trkpt lat="44.83289" lon="4.77949">
        <ele>229</ele>
        <time>2011-09-24T06:25:42Z</time>
      </trkpt>
      <trkpt lat="44.83307" lon="4.77916">
        <ele>232</ele>
        <time>2011-09-24T06:25:58Z</time>
      </trkpt>
      <trkpt lat="44.83309" lon="4.77876">
        <ele>234</ele>
        <time>2011-09-24T06:26:13Z</time>
      </trkpt>
      <trkpt lat="44.83342" lon="4.77799">
        <ele>238</ele>
        <time>2011-09-24T06:26:46Z</time>
      </trkpt>
      <trkpt lat="44.83382" lon="4.77735">
        <ele>242</ele>
        <time>2011-09-24T06:27:17Z</time>
      </trkpt>
      <trkpt lat="44.83435" lon="4.77716">
        <ele>247</ele>
        <time>2011-09-24T06:27:47Z</time>
      </trkpt>
      <trkpt lat="44.83492" lon="4.77751">
        <ele>251</ele>
        <time>2011-09-24T06:28:20Z</time>
      </trkpt>
      <trkpt lat="44.83536" lon="4.77813">
        <ele>256</ele>
        <time>2011-09-24T06:28:52Z</time>
      </trkpt>
      <trkpt lat="44.83546" lon="4.7782">
        <ele>257</ele>
        <time>2011-09-24T06:28:59Z</time>
      </trkpt>
      <trkpt lat="44.83607" lon="4.77834">
        <ele>262</ele>
        <time>2011-09-24T06:29:29Z</time>
      </trkpt>
      <trkpt lat="44.83664" lon="4.77856">
        <ele>266</ele>
        <time>2011-09-24T06:30:00Z</time>
      </trkpt>
      <trkpt lat="44.83723" lon="4.77872">
        <ele>271</ele>
        <time>2011-09-24T06:30:30Z</time>
      </trkpt>
      <trkpt lat="44.83728" lon="4.77877">
        <ele>271</ele>
        <time>2011-09-24T06:30:33Z</time>
      </trkpt>
      <trkpt lat="44.83733" lon="4.77878">
        <ele>272</ele>
        <time>2011-09-24T06:30:36Z</time>
      </trkpt>
      <trkpt lat="44.83781" lon="4.77851">
        <ele>275</ele>
        <time>2011-09-24T06:31:06Z</time>
      </trkpt>
      <trkpt lat="44.83809" lon="4.77853">
        <ele>277</ele>
        <time>2011-09-24T06:31:21Z</time>
      </trkpt>
      <trkpt lat="44.83819" lon="4.77858">
        <ele>277</ele>
        <time>2011-09-24T06:31:25Z</time>
      </trkpt>
      <trkpt lat="44.83824" lon="4.77856">
        <ele>278</ele>
        <time>2011-09-24T06:31:28Z</time>
      </trkpt>
      <trkpt lat="44.83871" lon="4.77816">
        <ele>282</ele>
        <time>2011-09-24T06:31:58Z</time>
      </trkpt>
      <trkpt lat="44.83931" lon="4.77802">
        <ele>286</ele>
        <time>2011-09-24T06:32:31Z</time>
      </trkpt>
      <trkpt lat="44.83991" lon="4.77766">
        <ele>290</ele>
        <time>2011-09-24T06:33:04Z</time>
      </trkpt>
      <trkpt lat="44.84043" lon="4.77718">
        <ele>294</ele>
        <time>2011-09-24T06:33:37Z</time>
      </trkpt>
      <trkpt lat="44.84096" lon="4.77689">
        <ele>298</ele>
        <time>2011-09-24T06:34:07Z</time>
      </trkpt>
      <trkpt lat="44.84152" lon="4.77656">
        <ele>302</ele>
        <time>2011-09-24T06:34:40Z</time>
      </trkpt>
      <trkpt lat="44.8416" lon="4.77649">
        <ele>303</ele>
        <time>2011-09-24T06:34:53Z</time>
      </trkpt>
      <trkpt lat="44.84165" lon="4.77649">
        <ele>303</ele>
        <time>2011-09-24T06:35:04Z</time>
      </trkpt>
      <trkpt lat="44.84163" lon="4.77645">
        <ele>310</ele>
        <time>2011-09-24T06:38:52Z</time>
      </trkpt>
      <trkpt lat="44.84164" lon="4.77648">
        <ele>310</ele>
        <time>2011-09-24T06:39:54Z</time>
      </trkpt>
      <trkpt lat="44.84163" lon="4.77649">
        <ele>312</ele>
        <time>2011-09-24T06:41:10Z</time>
      </trkpt>
      <trkpt lat="44.84161" lon="4.77643">
        <ele>313</ele>
        <time>2011-09-24T06:41:57Z</time>
      </trkpt>
      <trkpt lat="44.84161" lon="4.77643">
        <ele>313</ele>
        <time>2011-09-24T06:42:27Z</time>
      </trkpt>
      <trkpt lat="44.84199" lon="4.77599">
        <ele>315</ele>
        <time>2011-09-24T06:42:58Z</time>
      </trkpt>
      <trkpt lat="44.84223" lon="4.77518">
        <ele>318</ele>
        <time>2011-09-24T06:43:29Z</time>
      </trkpt>
      <trkpt lat="44.84226" lon="4.77496">
        <ele>319</ele>
        <time>2011-09-24T06:43:37Z</time>
      </trkpt>
      <trkpt lat="44.84224" lon="4.77489">
        <ele>319</ele>
        <time>2011-09-24T06:43:40Z</time>
      </trkpt>
      <trkpt lat="44.8422" lon="4.77485">
        <ele>320</ele>
        <time>2011-09-24T06:43:43Z</time>
      </trkpt>
      <trkpt lat="44.84215" lon="4.77483">
        <ele>320</ele>
        <time>2011-09-24T06:43:47Z</time>
      </trkpt>
      <trkpt lat="44.84211" lon="4.7749">
        <ele>321</ele>
        <time>2011-09-24T06:43:52Z</time>
      </trkpt>
      <trkpt lat="44.84172" lon="4.77553">
        <ele>324</ele>
        <time>2011-09-24T06:44:23Z</time>
      </trkpt>
      <trkpt lat="44.84113" lon="4.77569">
        <ele>326</ele>
        <time>2011-09-24T06:44:53Z</time>
      </trkpt>
      <trkpt lat="44.84035" lon="4.77575">
        <ele>329</ele>
        <time>2011-09-24T06:45:24Z</time>
      </trkpt>
      <trkpt lat="44.84012" lon="4.77572">
        <ele>330</ele>
        <time>2011-09-24T06:45:40Z</time>
      </trkpt>
      <trkpt lat="44.83955" lon="4.77587">
        <ele>333</ele>
        <time>2011-09-24T06:46:12Z</time>
      </trkpt>
      <trkpt lat="44.83875" lon="4.77581">
        <ele>334</ele>
        <time>2011-09-24T06:46:42Z</time>
      </trkpt>
      <trkpt lat="44.83846" lon="4.77571">
        <ele>335</ele>
        <time>2011-09-24T06:46:55Z</time>
      </trkpt>
      <trkpt lat="44.83843" lon="4.77563">
        <ele>336</ele>
        <time>2011-09-24T06:46:58Z</time>
      </trkpt>
      <trkpt lat="44.83851" lon="4.77505">
        <ele>338</ele>
        <time>2011-09-24T06:47:17Z</time>
      </trkpt>
      <trkpt lat="44.83901" lon="4.77429">
        <ele>343</ele>
        <time>2011-09-24T06:47:51Z</time>
      </trkpt>
      <trkpt lat="44.83962" lon="4.77369">
        <ele>348</ele>
        <time>2011-09-24T06:48:23Z</time>
      </trkpt>
      <trkpt lat="44.84014" lon="4.77298">
        <ele>353</ele>
        <time>2011-09-24T06:48:54Z</time>
      </trkpt>
      <trkpt lat="44.84077" lon="4.77232">
        <ele>358</ele>
        <time>2011-09-24T06:49:25Z</time>
      </trkpt>
      <trkpt lat="44.84151" lon="4.77171">
        <ele>363</ele>
        <time>2011-09-24T06:49:57Z</time>
      </trkpt>
      <trkpt lat="44.84215" lon="4.77108">
        <ele>367</ele>
        <time>2011-09-24T06:50:27Z</time>
      </trkpt>
      <trkpt lat="44.84264" lon="4.77019">
        <ele>372</ele>
        <time>2011-09-24T06:50:57Z</time>
      </trkpt>
      <trkpt lat="44.84267" lon="4.77004">
        <ele>372</ele>
        <time>2011-09-24T06:51:01Z</time>
      </trkpt>
      <trkpt lat="44.84297" lon="4.76905">
        <ele>377</ele>
        <time>2011-09-24T06:51:32Z</time>
      </trkpt>
      <trkpt lat="44.84301" lon="4.76901">
        <ele>378</ele>
        <time>2011-09-24T06:51:35Z</time>
      </trkpt>
      <trkpt lat="44.84302" lon="4.76907">
        <ele>379</ele>
        <time>2011-09-24T06:51:40Z</time>
      </trkpt>
      <trkpt lat="44.84289" lon="4.77003">
        <ele>383</ele>
        <time>2011-09-24T06:52:10Z</time>
      </trkpt>
      <trkpt lat="44.84275" lon="4.7709">
        <ele>386</ele>
        <time>2011-09-24T06:52:38Z</time>
      </trkpt>
      <trkpt lat="44.84283" lon="4.77109">
        <ele>387</ele>
        <time>2011-09-24T06:52:45Z</time>
      </trkpt>
      <trkpt lat="44.84293" lon="4.77115">
        <ele>387</ele>
        <time>2011-09-24T06:52:50Z</time>
      </trkpt>
      <trkpt lat="44.84304" lon="4.77112">
        <ele>388</ele>
        <time>2011-09-24T06:52:55Z</time>
      </trkpt>
      <trkpt lat="44.84356" lon="4.77043">
        <ele>391</ele>
        <time>2011-09-24T06:53:26Z</time>
      </trkpt>
      <trkpt lat="44.84414" lon="4.76995">
        <ele>394</ele>
        <time>2011-09-24T06:53:57Z</time>
      </trkpt>
      <trkpt lat="44.84472" lon="4.7695">
        <ele>398</ele>
        <time>2011-09-24T06:54:29Z</time>
      </trkpt>
      <trkpt lat="44.84528" lon="4.76905">
        <ele>401</ele>
        <time>2011-09-24T06:54:59Z</time>
      </trkpt>
      <trkpt lat="44.8458" lon="4.76847">
        <ele>404</ele>
        <time>2011-09-24T06:55:31Z</time>
      </trkpt>
      <trkpt lat="44.84624" lon="4.76771">
        <ele>408</ele>
        <time>2011-09-24T06:56:03Z</time>
      </trkpt>
      <trkpt lat="44.84633" lon="4.76771">
        <ele>408</ele>
        <time>2011-09-24T06:56:07Z</time>
      </trkpt>
      <trkpt lat="44.84643" lon="4.76781">
        <ele>409</ele>
        <time>2011-09-24T06:56:12Z</time>
      </trkpt>
      <trkpt lat="44.84659" lon="4.76823">
        <ele>411</ele>
        <time>2011-09-24T06:56:30Z</time>
      </trkpt>
      <trkpt lat="44.84719" lon="4.76871">
        <ele>416</ele>
        <time>2011-09-24T06:57:02Z</time>
      </trkpt>
      <trkpt lat="44.84723" lon="4.76878">
        <ele>416</ele>
        <time>2011-09-24T06:57:05Z</time>
      </trkpt>
      <trkpt lat="44.84722" lon="4.76886">
        <ele>417</ele>
        <time>2011-09-24T06:57:08Z</time>
      </trkpt>
      <trkpt lat="44.84719" lon="4.76891">
        <ele>417</ele>
        <time>2011-09-24T06:57:11Z</time>
      </trkpt>
      <trkpt lat="44.84662" lon="4.7694">
        <ele>421</ele>
        <time>2011-09-24T06:57:43Z</time>
      </trkpt>
      <trkpt lat="44.8464" lon="4.77032">
        <ele>424</ele>
        <time>2011-09-24T06:58:15Z</time>
      </trkpt>
      <trkpt lat="44.84618" lon="4.77105">
        <ele>427</ele>
        <time>2011-09-24T06:58:45Z</time>
      </trkpt>
      <trkpt lat="44.84585" lon="4.77175">
        <ele>430</ele>
        <time>2011-09-24T06:59:16Z</time>
      </trkpt>
      <trkpt lat="44.84557" lon="4.77234">
        <ele>433</ele>
        <time>2011-09-24T06:59:41Z</time>
      </trkpt>
      <trkpt lat="44.84568" lon="4.77322">
        <ele>436</ele>
        <time>2011-09-24T07:00:12Z</time>
      </trkpt>
      <trkpt lat="44.84559" lon="4.77389">
        <ele>439</ele>
        <time>2011-09-24T07:00:38Z</time>
      </trkpt>
      <trkpt lat="44.84565" lon="4.77402">
        <ele>440</ele>
        <time>2011-09-24T07:00:43Z</time>
      </trkpt>
      <trkpt lat="44.84576" lon="4.77409">
        <ele>440</ele>
        <time>2011-09-24T07:00:49Z</time>
      </trkpt>
      <trkpt lat="44.84635" lon="4.77383">
        <ele>445</ele>
        <time>2011-09-24T07:01:20Z</time>
      </trkpt>
      <trkpt lat="44.84704" lon="4.77345">
        <ele>449</ele>
        <time>2011-09-24T07:01:54Z</time>
      </trkpt>
      <trkpt lat="44.84758" lon="4.77282">
        <ele>453</ele>
        <time>2011-09-24T07:02:27Z</time>
      </trkpt>
      <trkpt lat="44.848" lon="4.77205">
        <ele>458</ele>
        <time>2011-09-24T07:02:58Z</time>
      </trkpt>
      <trkpt lat="44.8484" lon="4.77177">
        <ele>461</ele>
        <time>2011-09-24T07:03:18Z</time>
      </trkpt>
      <trkpt lat="44.84862" lon="4.77184">
        <ele>463</ele>
        <time>2011-09-24T07:03:28Z</time>
      </trkpt>
      <trkpt lat="44.84923" lon="4.77231">
        <ele>467</ele>
        <time>2011-09-24T07:03:59Z</time>
      </trkpt>
      <trkpt lat="44.8499" lon="4.77281">
        <ele>471</ele>
        <time>2011-09-24T07:04:32Z</time>
      </trkpt>
      <trkpt lat="44.85008" lon="4.77295">
        <ele>472</ele>
        <time>2011-09-24T07:04:47Z</time>
      </trkpt>
      <trkpt lat="44.8501" lon="4.77287">
        <ele>477</ele>
        <time>2011-09-24T07:07:54Z</time>
      </trkpt>
      <trkpt lat="44.85016" lon="4.77211">
        <ele>478</ele>
        <time>2011-09-24T07:08:24Z</time>
      </trkpt>
      <trkpt lat="44.85025" lon="4.77131">
        <ele>481</ele>
        <time>2011-09-24T07:08:59Z</time>
      </trkpt>
      <trkpt lat="44.85026" lon="4.77066">
        <ele>483</ele>
        <time>2011-09-24T07:09:29Z</time>
      </trkpt>
      <trkpt lat="44.85021" lon="4.77003">
        <ele>487</ele>
        <time>2011-09-24T07:10:01Z</time>
      </trkpt>
      <trkpt lat="44.85026" lon="4.76944">
        <ele>491</ele>
        <time>2011-09-24T07:10:32Z</time>
      </trkpt>
      <trkpt lat="44.85026" lon="4.76928">
        <ele>492</ele>
        <time>2011-09-24T07:10:40Z</time>
      </trkpt>
      <trkpt lat="44.85036" lon="4.7687">
        <ele>497</ele>
        <time>2011-09-24T07:11:12Z</time>
      </trkpt>
      <trkpt lat="44.85045" lon="4.76811">
        <ele>501</ele>
        <time>2011-09-24T07:11:46Z</time>
      </trkpt>
      <trkpt lat="44.85041" lon="4.76752">
        <ele>508</ele>
        <time>2011-09-24T07:12:19Z</time>
      </trkpt>
      <trkpt lat="44.85046" lon="4.76704">
        <ele>514</ele>
        <time>2011-09-24T07:12:47Z</time>
      </trkpt>
      <trkpt lat="44.8507" lon="4.76656">
        <ele>519</ele>
        <time>2011-09-24T07:13:18Z</time>
      </trkpt>
      <trkpt lat="44.85088" lon="4.76603">
        <ele>524</ele>
        <time>2011-09-24T07:13:50Z</time>
      </trkpt>
      <trkpt lat="44.85108" lon="4.76547">
        <ele>529</ele>
        <time>2011-09-24T07:14:24Z</time>
      </trkpt>
      <trkpt lat="44.85135" lon="4.76496">
        <ele>534</ele>
        <time>2011-09-24T07:14:58Z</time>
      </trkpt>
      <trkpt lat="44.85138" lon="4.76489">
        <ele>535</ele>
        <time>2011-09-24T07:15:03Z</time>
      </trkpt>
      <trkpt lat="44.85141" lon="4.76468">
        <ele>538</ele>
        <time>2011-09-24T07:15:17Z</time>
      </trkpt>
      <trkpt lat="44.85139" lon="4.76459">
        <ele>539</ele>
        <time>2011-09-24T07:15:23Z</time>
      </trkpt>
      <trkpt lat="44.85135" lon="4.76454">
        <ele>540</ele>
        <time>2011-09-24T07:15:30Z</time>
      </trkpt>
      <trkpt lat="44.85131" lon="4.76456">
        <ele>541</ele>
        <time>2011-09-24T07:15:34Z</time>
      </trkpt>
      <trkpt lat="44.85131" lon="4.76463">
        <ele>542</ele>
        <time>2011-09-24T07:15:39Z</time>
      </trkpt>
      <trkpt lat="44.85135" lon="4.7646">
        <ele>543</ele>
        <time>2011-09-24T07:15:46Z</time>
      </trkpt>
      <trkpt lat="44.85136" lon="4.76453">
        <ele>544</ele>
        <time>2011-09-24T07:15:51Z</time>
      </trkpt>
      <trkpt lat="44.85137" lon="4.76453">
        <ele>548</ele>
        <time>2011-09-24T07:17:20Z</time>
      </trkpt>
      <trkpt lat="44.85142" lon="4.7645">
        <ele>549</ele>
        <time>2011-09-24T07:17:26Z</time>
      </trkpt>
      <trkpt lat="44.85177" lon="4.76426">
        <ele>551</ele>
        <time>2011-09-24T07:17:59Z</time>
      </trkpt>
      <trkpt lat="44.85203" lon="4.76382">
        <ele>555</ele>
        <time>2011-09-24T07:18:32Z</time>
      </trkpt>
      <trkpt lat="44.85233" lon="4.76344">
        <ele>560</ele>
        <time>2011-09-24T07:19:06Z</time>
      </trkpt>
      <trkpt lat="44.8527" lon="4.76313">
        <ele>564</ele>
        <time>2011-09-24T07:19:43Z</time>
      </trkpt>
      <trkpt lat="44.85313" lon="4.76277">
        <ele>569</ele>
        <time>2011-09-24T07:20:13Z</time>
      </trkpt>
      <trkpt lat="44.8536" lon="4.76258">
        <ele>574</ele>
        <time>2011-09-24T07:20:45Z</time>
      </trkpt>
      <trkpt lat="44.85411" lon="4.76202">
        <ele>578</ele>
        <time>2011-09-24T07:21:17Z</time>
      </trkpt>
      <trkpt lat="44.85457" lon="4.76111">
        <ele>582</ele>
        <time>2011-09-24T07:21:49Z</time>
      </trkpt>
      <trkpt lat="44.85518" lon="4.76001">
        <ele>584</ele>
        <time>2011-09-24T07:22:23Z</time>
      </trkpt>
      <trkpt lat="44.85542" lon="4.75912">
        <ele>588</ele>
        <time>2011-09-24T07:22:54Z</time>
      </trkpt>
      <trkpt lat="44.8556" lon="4.75874">
        <ele>588</ele>
        <time>2011-09-24T07:23:08Z</time>
      </trkpt>
      <trkpt lat="44.85563" lon="4.75877">
        <ele>589</ele>
        <time>2011-09-24T07:23:28Z</time>
      </trkpt>
      <trkpt lat="44.85566" lon="4.75872">
        <ele>589</ele>
        <time>2011-09-24T07:23:36Z</time>
      </trkpt>
      <trkpt lat="44.85569" lon="4.75878">
        <ele>590</ele>
        <time>2011-09-24T07:23:40Z</time>
      </trkpt>
      <trkpt lat="44.85566" lon="4.75893">
        <ele>591</ele>
        <time>2011-09-24T07:23:46Z</time>
      </trkpt>
      <trkpt lat="44.85565" lon="4.75901">
        <ele>591</ele>
        <time>2011-09-24T07:23:49Z</time>
      </trkpt>
      <trkpt lat="44.85571" lon="4.75922">
        <ele>592</ele>
        <time>2011-09-24T07:24:00Z</time>
      </trkpt>
      <trkpt lat="44.85575" lon="4.75925">
        <ele>593</ele>
        <time>2011-09-24T07:24:04Z</time>
      </trkpt>
      <trkpt lat="44.85591" lon="4.75922">
        <ele>593</ele>
        <time>2011-09-24T07:24:14Z</time>
      </trkpt>
      <trkpt lat="44.85626" lon="4.7588">
        <ele>594</ele>
        <time>2011-09-24T07:24:29Z</time>
      </trkpt>
      <trkpt lat="44.85637" lon="4.75823">
        <ele>595</ele>
        <time>2011-09-24T07:24:38Z</time>
      </trkpt>
      <trkpt lat="44.85645" lon="4.7578">
        <ele>591</ele>
        <time>2011-09-24T07:24:45Z</time>
      </trkpt>
      <trkpt lat="44.85653" lon="4.75768">
        <ele>591</ele>
        <time>2011-09-24T07:24:48Z</time>
      </trkpt>
      <trkpt lat="44.85746" lon="4.75682">
        <ele>584</ele>
        <time>2011-09-24T07:25:09Z</time>
      </trkpt>
      <trkpt lat="44.85779" lon="4.75598">
        <ele>571</ele>
        <time>2011-09-24T07:25:20Z</time>
      </trkpt>
      <trkpt lat="44.85768" lon="4.75535">
        <ele>565</ele>
        <time>2011-09-24T07:25:28Z</time>
      </trkpt>
      <trkpt lat="44.85751" lon="4.75444">
        <ele>561</ele>
        <time>2011-09-24T07:26:00Z</time>
      </trkpt>
      <trkpt lat="44.85749" lon="4.7536">
        <ele>557</ele>
        <time>2011-09-24T07:26:32Z</time>
      </trkpt>
      <trkpt lat="44.8575" lon="4.75338">
        <ele>557</ele>
        <time>2011-09-24T07:26:40Z</time>
      </trkpt>
      <trkpt lat="44.85751" lon="4.75327">
        <ele>556</ele>
        <time>2011-09-24T07:29:33Z</time>
      </trkpt>
      <trkpt lat="44.85753" lon="4.75325">
        <ele>555</ele>
        <time>2011-09-24T07:34:32Z</time>
      </trkpt>
      <trkpt lat="44.85765" lon="4.75309">
        <ele>555</ele>
        <time>2011-09-24T07:34:48Z</time>
      </trkpt>
      <trkpt lat="44.85769" lon="4.75255">
        <ele>556</ele>
        <time>2011-09-24T07:35:14Z</time>
      </trkpt>
      <trkpt lat="44.85762" lon="4.75185">
        <ele>558</ele>
        <time>2011-09-24T07:35:46Z</time>
      </trkpt>
      <trkpt lat="44.85743" lon="4.75127">
        <ele>560</ele>
        <time>2011-09-24T07:36:17Z</time>
      </trkpt>
      <trkpt lat="44.8572" lon="4.75061">
        <ele>563</ele>
        <time>2011-09-24T07:36:49Z</time>
      </trkpt>
      <trkpt lat="44.85695" lon="4.75017">
        <ele>566</ele>
        <time>2011-09-24T07:37:14Z</time>
      </trkpt>
      <trkpt lat="44.85706" lon="4.74974">
        <ele>568</ele>
        <time>2011-09-24T07:37:37Z</time>
      </trkpt>
      <trkpt lat="44.85725" lon="4.74955">
        <ele>570</ele>
        <time>2011-09-24T07:37:52Z</time>
      </trkpt>
      <trkpt lat="44.8573" lon="4.74954">
        <ele>571</ele>
        <time>2011-09-24T07:37:55Z</time>
      </trkpt>
      <trkpt lat="44.85734" lon="4.74959">
        <ele>571</ele>
        <time>2011-09-24T07:37:59Z</time>
      </trkpt>
      <trkpt lat="44.85756" lon="4.7498">
        <ele>574</ele>
        <time>2011-09-24T07:38:18Z</time>
      </trkpt>
      <trkpt lat="44.85806" lon="4.7498">
        <ele>577</ele>
        <time>2011-09-24T07:38:49Z</time>
      </trkpt>
      <trkpt lat="44.85861" lon="4.74993">
        <ele>579</ele>
        <time>2011-09-24T07:39:23Z</time>
      </trkpt>
      <trkpt lat="44.85884" lon="4.75012">
        <ele>580</ele>
        <time>2011-09-24T07:39:33Z</time>
      </trkpt>
      <trkpt lat="44.85889" lon="4.75018">
        <ele>581</ele>
        <time>2011-09-24T07:39:35Z</time>
      </trkpt>
      <trkpt lat="44.85898" lon="4.75028">
        <ele>581</ele>
        <time>2011-09-24T07:39:38Z</time>
      </trkpt>
      <trkpt lat="44.86011" lon="4.75133">
        <ele>587</ele>
        <time>2011-09-24T07:40:08Z</time>
      </trkpt>
      <trkpt lat="44.86071" lon="4.75228">
        <ele>587</ele>
        <time>2011-09-24T07:40:35Z</time>
      </trkpt>
      <trkpt lat="44.86111" lon="4.75285">
        <ele>576</ele>
        <time>2011-09-24T07:40:49Z</time>
      </trkpt>
      <trkpt lat="44.86115" lon="4.75282">
        <ele>576</ele>
        <time>2011-09-24T07:40:56Z</time>
      </trkpt>
      <trkpt lat="44.86117" lon="4.75275">
        <ele>575</ele>
        <time>2011-09-24T07:40:59Z</time>
      </trkpt>
      <trkpt lat="44.86125" lon="4.75217">
        <ele>574</ele>
        <time>2011-09-24T07:41:17Z</time>
      </trkpt>
      <trkpt lat="44.86125" lon="4.75207">
        <ele>573</ele>
        <time>2011-09-24T07:41:19Z</time>
      </trkpt>
      <trkpt lat="44.86124" lon="4.75132">
        <ele>571</ele>
        <time>2011-09-24T07:41:36Z</time>
      </trkpt>
      <trkpt lat="44.86105" lon="4.75043">
        <ele>564</ele>
        <time>2011-09-24T07:41:49Z</time>
      </trkpt>
      <trkpt lat="44.86123" lon="4.75012">
        <ele>564</ele>
        <time>2011-09-24T07:41:55Z</time>
      </trkpt>
      <trkpt lat="44.86135" lon="4.74988">
        <ele>566</ele>
        <time>2011-09-24T07:41:59Z</time>
      </trkpt>
      <trkpt lat="44.86162" lon="4.74887">
        <ele>565</ele>
        <time>2011-09-24T07:42:22Z</time>
      </trkpt>
      <trkpt lat="44.86166" lon="4.74858">
        <ele>564</ele>
        <time>2011-09-24T07:42:28Z</time>
      </trkpt>
      <trkpt lat="44.86168" lon="4.74802">
        <ele>562</ele>
        <time>2011-09-24T07:42:42Z</time>
      </trkpt>
      <trkpt lat="44.86168" lon="4.74798">
        <ele>562</ele>
        <time>2011-09-24T07:42:56Z</time>
      </trkpt>
      <trkpt lat="44.86163" lon="4.74793">
        <ele>557</ele>
        <time>2011-09-24T07:44:10Z</time>
      </trkpt>
      <trkpt lat="44.86165" lon="4.74786">
        <ele>555</ele>
        <time>2011-09-24T07:44:15Z</time>
      </trkpt>
      <trkpt lat="44.86172" lon="4.74774">
        <ele>554</ele>
        <time>2011-09-24T07:44:19Z</time>
      </trkpt>
      <trkpt lat="44.86179" lon="4.74743">
        <ele>545</ele>
        <time>2011-09-24T07:44:32Z</time>
      </trkpt>
      <trkpt lat="44.86174" lon="4.7474">
        <ele>544</ele>
        <time>2011-09-24T07:44:50Z</time>
      </trkpt>
      <trkpt lat="44.86171" lon="4.74738">
        <ele>544</ele>
        <time>2011-09-24T07:45:07Z</time>
      </trkpt>
      <trkpt lat="44.86173" lon="4.74732">
        <ele>542</ele>
        <time>2011-09-24T07:45:29Z</time>
      </trkpt>
      <trkpt lat="44.86175" lon="4.74645">
        <ele>537</ele>
        <time>2011-09-24T07:45:48Z</time>
      </trkpt>
      <trkpt lat="44.86216" lon="4.74576">
        <ele>534</ele>
        <time>2011-09-24T07:46:07Z</time>
      </trkpt>
      <trkpt lat="44.86244" lon="4.74536">
        <ele>527</ele>
        <time>2011-09-24T07:46:17Z</time>
      </trkpt>
      <trkpt lat="44.86274" lon="4.74472">
        <ele>526</ele>
        <time>2011-09-24T07:46:45Z</time>
      </trkpt>
      <trkpt lat="44.86267" lon="4.74437">
        <ele>526</ele>
        <time>2011-09-24T07:47:03Z</time>
      </trkpt>
      <trkpt lat="44.86263" lon="4.74423">
        <ele>526</ele>
        <time>2011-09-24T07:47:10Z</time>
      </trkpt>
      <trkpt lat="44.86278" lon="4.74384">
        <ele>527</ele>
        <time>2011-09-24T07:47:28Z</time>
      </trkpt>
      <trkpt lat="44.86313" lon="4.74329">
        <ele>529</ele>
        <time>2011-09-24T07:47:59Z</time>
      </trkpt>
      <trkpt lat="44.86341" lon="4.74275">
        <ele>532</ele>
        <time>2011-09-24T07:48:26Z</time>
      </trkpt>
      <trkpt lat="44.86357" lon="4.74202">
        <ele>536</ele>
        <time>2011-09-24T07:48:58Z</time>
      </trkpt>
      <trkpt lat="44.86377" lon="4.74133">
        <ele>540</ele>
        <time>2011-09-24T07:49:27Z</time>
      </trkpt>
      <trkpt lat="44.86373" lon="4.74035">
        <ele>543</ele>
        <time>2011-09-24T07:49:59Z</time>
      </trkpt>
      <trkpt lat="44.86379" lon="4.73939">
        <ele>545</ele>
        <time>2011-09-24T07:50:31Z</time>
      </trkpt>
      <trkpt lat="44.86403" lon="4.73843">
        <ele>550</ele>
        <time>2011-09-24T07:51:04Z</time>
      </trkpt>
      <trkpt lat="44.86403" lon="4.73832">
        <ele>551</ele>
        <time>2011-09-24T07:51:09Z</time>
      </trkpt>
      <trkpt lat="44.864" lon="4.73826">
        <ele>551</ele>
        <time>2011-09-24T07:51:13Z</time>
      </trkpt>
      <trkpt lat="44.86405" lon="4.73788">
        <ele>552</ele>
        <time>2011-09-24T07:51:29Z</time>
      </trkpt>
      <trkpt lat="44.86409" lon="4.73775">
        <ele>553</ele>
        <time>2011-09-24T07:51:37Z</time>
      </trkpt>
      <trkpt lat="44.86425" lon="4.73756">
        <ele>554</ele>
        <time>2011-09-24T07:51:55Z</time>
      </trkpt>
      <trkpt lat="44.86451" lon="4.73748">
        <ele>557</ele>
        <time>2011-09-24T07:52:15Z</time>
      </trkpt>
      <trkpt lat="44.86468" lon="4.73733">
        <ele>558</ele>
        <time>2011-09-24T07:52:29Z</time>
      </trkpt>
      <trkpt lat="44.86477" lon="4.73737">
        <ele>559</ele>
        <time>2011-09-24T07:52:34Z</time>
      </trkpt>
      <trkpt lat="44.86492" lon="4.73729">
        <ele>561</ele>
        <time>2011-09-24T07:52:45Z</time>
      </trkpt>
      <trkpt lat="44.86497" lon="4.73731">
        <ele>561</ele>
        <time>2011-09-24T07:52:48Z</time>
      </trkpt>
      <trkpt lat="44.86516" lon="4.73735">
        <ele>564</ele>
        <time>2011-09-24T07:53:00Z</time>
      </trkpt>
      <trkpt lat="44.86551" lon="4.73702">
        <ele>568</ele>
        <time>2011-09-24T07:53:32Z</time>
      </trkpt>
      <trkpt lat="44.86555" lon="4.73688">
        <ele>570</ele>
        <time>2011-09-24T07:53:40Z</time>
      </trkpt>
      <trkpt lat="44.86552" lon="4.73688">
        <ele>571</ele>
        <time>2011-09-24T07:54:28Z</time>
      </trkpt>
      <trkpt lat="44.86553" lon="4.73681">
        <ele>571</ele>
        <time>2011-09-24T07:54:56Z</time>
      </trkpt>
      <trkpt lat="44.86555" lon="4.73619">
        <ele>572</ele>
        <time>2011-09-24T07:55:11Z</time>
      </trkpt>
      <trkpt lat="44.86541" lon="4.7358">
        <ele>574</ele>
        <time>2011-09-24T07:55:27Z</time>
      </trkpt>
      <trkpt lat="44.8654" lon="4.73508">
        <ele>581</ele>
        <time>2011-09-24T07:56:04Z</time>
      </trkpt>
      <trkpt lat="44.86531" lon="4.73455">
        <ele>583</ele>
        <time>2011-09-24T07:56:31Z</time>
      </trkpt>
      <trkpt lat="44.86537" lon="4.73442">
        <ele>583</ele>
        <time>2011-09-24T07:56:39Z</time>
      </trkpt>
      <trkpt lat="44.86546" lon="4.73403">
        <ele>582</ele>
        <time>2011-09-24T07:56:52Z</time>
      </trkpt>
      <trkpt lat="44.86576" lon="4.73367">
        <ele>579</ele>
        <time>2011-09-24T07:57:05Z</time>
      </trkpt>
      <trkpt lat="44.86581" lon="4.73335">
        <ele>579</ele>
        <time>2011-09-24T07:57:12Z</time>
      </trkpt>
      <trkpt lat="44.86585" lon="4.7324">
        <ele>581</ele>
        <time>2011-09-24T07:57:38Z</time>
      </trkpt>
      <trkpt lat="44.86623" lon="4.73215">
        <ele>583</ele>
        <time>2011-09-24T07:58:10Z</time>
      </trkpt>
      <trkpt lat="44.86636" lon="4.73192">
        <ele>585</ele>
        <time>2011-09-24T07:58:27Z</time>
      </trkpt>
      <trkpt lat="44.86637" lon="4.73177">
        <ele>586</ele>
        <time>2011-09-24T07:58:38Z</time>
      </trkpt>
      <trkpt lat="44.86643" lon="4.73122">
        <ele>591</ele>
        <time>2011-09-24T07:59:13Z</time>
      </trkpt>
      <trkpt lat="44.86643" lon="4.7308">
        <ele>597</ele>
        <time>2011-09-24T07:59:45Z</time>
      </trkpt>
      <trkpt lat="44.86649" lon="4.73027">
        <ele>604</ele>
        <time>2011-09-24T08:00:16Z</time>
      </trkpt>
      <trkpt lat="44.86654" lon="4.72999">
        <ele>609</ele>
        <time>2011-09-24T08:01:03Z</time>
      </trkpt>
      <trkpt lat="44.86657" lon="4.72996">
        <ele>615</ele>
        <time>2011-09-24T08:02:47Z</time>
      </trkpt>
      <trkpt lat="44.86658" lon="4.72987">
        <ele>616</ele>
        <time>2011-09-24T08:02:54Z</time>
      </trkpt>
      <trkpt lat="44.86661" lon="4.72982">
        <ele>616</ele>
        <time>2011-09-24T08:02:59Z</time>
      </trkpt>
      <trkpt lat="44.86665" lon="4.72923">
        <ele>620</ele>
        <time>2011-09-24T08:03:29Z</time>
      </trkpt>
      <trkpt lat="44.86671" lon="4.72864">
        <ele>625</ele>
        <time>2011-09-24T08:04:00Z</time>
      </trkpt>
      <trkpt lat="44.86689" lon="4.7281">
        <ele>629</ele>
        <time>2011-09-24T08:04:30Z</time>
      </trkpt>
      <trkpt lat="44.86699" lon="4.72788">
        <ele>632</ele>
        <time>2011-09-24T08:05:01Z</time>
      </trkpt>
      <trkpt lat="44.8671" lon="4.72765">
        <ele>634</ele>
        <time>2011-09-24T08:05:40Z</time>
      </trkpt>
      <trkpt lat="44.86734" lon="4.72717">
        <ele>635</ele>
        <time>2011-09-24T08:06:10Z</time>
      </trkpt>
      <trkpt lat="44.86751" lon="4.72691">
        <ele>637</ele>
        <time>2011-09-24T08:06:33Z</time>
      </trkpt>
      <trkpt lat="44.86757" lon="4.72687">
        <ele>638</ele>
        <time>2011-09-24T08:07:08Z</time>
      </trkpt>
      <trkpt lat="44.86759" lon="4.72685">
        <ele>639</ele>
        <time>2011-09-24T08:07:59Z</time>
      </trkpt>
      <trkpt lat="44.86758" lon="4.72678">
        <ele>640</ele>
        <time>2011-09-24T08:08:33Z</time>
      </trkpt>
      <trkpt lat="44.86761" lon="4.72672">
        <ele>641</ele>
        <time>2011-09-24T08:08:38Z</time>
      </trkpt>
      <trkpt lat="44.8679" lon="4.72615">
        <ele>643</ele>
        <time>2011-09-24T08:09:10Z</time>
      </trkpt>
      <trkpt lat="44.86834" lon="4.72541">
        <ele>648</ele>
        <time>2011-09-24T08:09:44Z</time>
      </trkpt>
      <trkpt lat="44.86894" lon="4.72471">
        <ele>649</ele>
        <time>2011-09-24T08:10:15Z</time>
      </trkpt>
      <trkpt lat="44.86958" lon="4.7244">
        <ele>648</ele>
        <time>2011-09-24T08:10:47Z</time>
      </trkpt>
      <trkpt lat="44.86973" lon="4.72431">
        <ele>648</ele>
        <time>2011-09-24T08:10:57Z</time>
      </trkpt>
      <trkpt lat="44.87018" lon="4.7235">
        <ele>651</ele>
        <time>2011-09-24T08:11:31Z</time>
      </trkpt>
      <trkpt lat="44.87056" lon="4.72275">
        <ele>656</ele>
        <time>2011-09-24T08:12:03Z</time>
      </trkpt>
      <trkpt lat="44.87102" lon="4.72201">
        <ele>663</ele>
        <time>2011-09-24T08:12:35Z</time>
      </trkpt>
      <trkpt lat="44.87169" lon="4.72124">
        <ele>668</ele>
        <time>2011-09-24T08:13:08Z</time>
      </trkpt>
      <trkpt lat="44.87189" lon="4.7206">
        <ele>670</ele>
        <time>2011-09-24T08:13:28Z</time>
      </trkpt>
      <trkpt lat="44.87227" lon="4.71923">
        <ele>670</ele>
        <time>2011-09-24T08:14:00Z</time>
      </trkpt>
      <trkpt lat="44.8724" lon="4.71903">
        <ele>670</ele>
        <time>2011-09-24T08:14:13Z</time>
      </trkpt>
      <trkpt lat="44.87283" lon="4.7186">
        <ele>668</ele>
        <time>2011-09-24T08:14:44Z</time>
      </trkpt>
      <trkpt lat="44.87306" lon="4.71781">
        <ele>668</ele>
        <time>2011-09-24T08:15:17Z</time>
      </trkpt>
      <trkpt lat="44.8733" lon="4.71715">
        <ele>669</ele>
        <time>2011-09-24T08:15:48Z</time>
      </trkpt>
      <trkpt lat="44.87377" lon="4.71635">
        <ele>672</ele>
        <time>2011-09-24T08:16:21Z</time>
      </trkpt>
      <trkpt lat="44.87427" lon="4.71586">
        <ele>674</ele>
        <time>2011-09-24T08:16:54Z</time>
      </trkpt>
      <trkpt lat="44.87476" lon="4.71567">
        <ele>675</ele>
        <time>2011-09-24T08:17:25Z</time>
      </trkpt>
      <trkpt lat="44.87514" lon="4.71556">
        <ele>678</ele>
        <time>2011-09-24T08:17:59Z</time>
      </trkpt>
      <trkpt lat="44.87544" lon="4.71532">
        <ele>682</ele>
        <time>2011-09-24T08:18:32Z</time>
      </trkpt>
      <trkpt lat="44.87551" lon="4.71523">
        <ele>684</ele>
        <time>2011-09-24T08:18:41Z</time>
      </trkpt>
      <trkpt lat="44.87549" lon="4.71517">
        <ele>685</ele>
        <time>2011-09-24T08:18:48Z</time>
      </trkpt>
      <trkpt lat="44.87544" lon="4.71518">
        <ele>686</ele>
        <time>2011-09-24T08:18:56Z</time>
      </trkpt>
      <trkpt lat="44.87519" lon="4.71503">
        <ele>690</ele>
        <time>2011-09-24T08:19:22Z</time>
      </trkpt>
      <trkpt lat="44.87518" lon="4.71499">
        <ele>691</ele>
        <time>2011-09-24T08:19:29Z</time>
      </trkpt>
      <trkpt lat="44.8752" lon="4.71495">
        <ele>698</ele>
        <time>2011-09-24T08:26:07Z</time>
      </trkpt>
      <trkpt lat="44.87522" lon="4.71489">
        <ele>699</ele>
        <time>2011-09-24T08:26:15Z</time>
      </trkpt>
      <trkpt lat="44.87535" lon="4.71478">
        <ele>700</ele>
        <time>2011-09-24T08:26:33Z</time>
      </trkpt>
      <trkpt lat="44.87536" lon="4.71472">
        <ele>701</ele>
        <time>2011-09-24T08:26:38Z</time>
      </trkpt>
      <trkpt lat="44.87531" lon="4.71461">
        <ele>701</ele>
        <time>2011-09-24T08:26:49Z</time>
      </trkpt>
      <trkpt lat="44.87528" lon="4.71454">
        <ele>702</ele>
        <time>2011-09-24T08:26:55Z</time>
      </trkpt>
      <trkpt lat="44.87526" lon="4.71452">
        <ele>702</ele>
        <time>2011-09-24T08:27:01Z</time>
      </trkpt>
      <trkpt lat="44.87525" lon="4.71442">
        <ele>703</ele>
        <time>2011-09-24T08:27:09Z</time>
      </trkpt>
      <trkpt lat="44.87528" lon="4.71429">
        <ele>705</ele>
        <time>2011-09-24T08:27:19Z</time>
      </trkpt>
      <trkpt lat="44.87544" lon="4.71382">
        <ele>711</ele>
        <time>2011-09-24T08:27:52Z</time>
      </trkpt>
      <trkpt lat="44.87571" lon="4.71354">
        <ele>715</ele>
        <time>2011-09-24T08:28:25Z</time>
      </trkpt>
      <trkpt lat="44.87591" lon="4.7132">
        <ele>720</ele>
        <time>2011-09-24T08:28:55Z</time>
      </trkpt>
      <trkpt lat="44.87592" lon="4.71313">
        <ele>720</ele>
        <time>2011-09-24T08:28:59Z</time>
      </trkpt>
      <trkpt lat="44.87611" lon="4.71279">
        <ele>726</ele>
        <time>2011-09-24T08:29:33Z</time>
      </trkpt>
      <trkpt lat="44.87624" lon="4.71263">
        <ele>730</ele>
        <time>2011-09-24T08:29:51Z</time>
      </trkpt>
      <trkpt lat="44.87652" lon="4.71238">
        <ele>738</ele>
        <time>2011-09-24T08:30:22Z</time>
      </trkpt>
      <trkpt lat="44.87673" lon="4.71225">
        <ele>745</ele>
        <time>2011-09-24T08:30:58Z</time>
      </trkpt>
      <trkpt lat="44.87683" lon="4.71213">
        <ele>750</ele>
        <time>2011-09-24T08:31:27Z</time>
      </trkpt>
      <trkpt lat="44.87696" lon="4.71224">
        <ele>753</ele>
        <time>2011-09-24T08:31:51Z</time>
      </trkpt>
      <trkpt lat="44.87721" lon="4.71235">
        <ele>757</ele>
        <time>2011-09-24T08:32:16Z</time>
      </trkpt>
      <trkpt lat="44.87742" lon="4.71228">
        <ele>762</ele>
        <time>2011-09-24T08:32:47Z</time>
      </trkpt>
      <trkpt lat="44.87763" lon="4.71226">
        <ele>767</ele>
        <time>2011-09-24T08:33:22Z</time>
      </trkpt>
      <trkpt lat="44.87772" lon="4.71226">
        <ele>767</ele>
        <time>2011-09-24T08:33:31Z</time>
      </trkpt>
      <trkpt lat="44.87774" lon="4.71238">
        <ele>769</ele>
        <time>2011-09-24T08:34:18Z</time>
      </trkpt>
      <trkpt lat="44.87777" lon="4.71244">
        <ele>769</ele>
        <time>2011-09-24T08:34:20Z</time>
      </trkpt>
      <trkpt lat="44.87783" lon="4.71233">
        <ele>770</ele>
        <time>2011-09-24T08:34:39Z</time>
      </trkpt>
      <trkpt lat="44.87784" lon="4.71226">
        <ele>771</ele>
        <time>2011-09-24T08:34:48Z</time>
      </trkpt>
      <trkpt lat="44.87791" lon="4.71224">
        <ele>771</ele>
        <time>2011-09-24T08:34:57Z</time>
      </trkpt>
      <trkpt lat="44.87834" lon="4.71228">
        <ele>774</ele>
        <time>2011-09-24T08:35:28Z</time>
      </trkpt>
      <trkpt lat="44.87892" lon="4.71227">
        <ele>781</ele>
        <time>2011-09-24T08:36:03Z</time>
      </trkpt>
      <trkpt lat="44.87949" lon="4.71237">
        <ele>788</ele>
        <time>2011-09-24T08:36:33Z</time>
      </trkpt>
      <trkpt lat="44.87973" lon="4.71213">
        <ele>790</ele>
        <time>2011-09-24T08:37:10Z</time>
      </trkpt>
      <trkpt lat="44.87968" lon="4.71216">
        <ele>789</ele>
        <time>2011-09-24T08:37:28Z</time>
      </trkpt>
      <trkpt lat="44.87971" lon="4.71221">
        <ele>789</ele>
        <time>2011-09-24T08:37:39Z</time>
      </trkpt>
      <trkpt lat="44.87972" lon="4.71218">
        <ele>789</ele>
        <time>2011-09-24T08:38:35Z</time>
      </trkpt>
      <trkpt lat="44.8795" lon="4.71193">
        <ele>789</ele>
        <time>2011-09-24T08:38:56Z</time>
      </trkpt>
      <trkpt lat="44.87897" lon="4.7117">
        <ele>789</ele>
        <time>2011-09-24T08:39:32Z</time>
      </trkpt>
      <trkpt lat="44.87832" lon="4.71139">
        <ele>791</ele>
        <time>2011-09-24T08:40:04Z</time>
      </trkpt>
      <trkpt lat="44.87822" lon="4.71141">
        <ele>792</ele>
        <time>2011-09-24T08:40:10Z</time>
      </trkpt>
      <trkpt lat="44.87768" lon="4.71105">
        <ele>794</ele>
        <time>2011-09-24T08:40:44Z</time>
      </trkpt>
      <trkpt lat="44.8772" lon="4.71049">
        <ele>795</ele>
        <time>2011-09-24T08:41:16Z</time>
      </trkpt>
      <trkpt lat="44.87682" lon="4.71036">
        <ele>796</ele>
        <time>2011-09-24T08:41:25Z</time>
      </trkpt>
      <trkpt lat="44.87646" lon="4.71036">
        <ele>799</ele>
        <time>2011-09-24T08:41:31Z</time>
      </trkpt>
      <trkpt lat="44.87484" lon="4.70981">
        <ele>790</ele>
        <time>2011-09-24T08:42:01Z</time>
      </trkpt>
      <trkpt lat="44.8743" lon="4.70936">
        <ele>788</ele>
        <time>2011-09-24T08:42:14Z</time>
      </trkpt>
      <trkpt lat="44.87365" lon="4.70839">
        <ele>774</ele>
        <time>2011-09-24T08:42:45Z</time>
      </trkpt>
      <trkpt lat="44.87331" lon="4.70797">
        <ele>772</ele>
        <time>2011-09-24T08:43:15Z</time>
      </trkpt>
      <trkpt lat="44.8729" lon="4.70743">
        <ele>773</ele>
        <time>2011-09-24T08:43:46Z</time>
      </trkpt>
      <trkpt lat="44.87219" lon="4.70645">
        <ele>778</ele>
        <time>2011-09-24T08:44:16Z</time>
      </trkpt>
      <trkpt lat="44.87146" lon="4.70513">
        <ele>776</ele>
        <time>2011-09-24T08:44:30Z</time>
      </trkpt>
      <trkpt lat="44.87108" lon="4.70358">
        <ele>759</ele>
        <time>2011-09-24T08:44:56Z</time>
      </trkpt>
      <trkpt lat="44.87103" lon="4.70356">
        <ele>759</ele>
        <time>2011-09-24T08:45:00Z</time>
      </trkpt>
      <trkpt lat="44.87094" lon="4.70356">
        <ele>758</ele>
        <time>2011-09-24T08:45:06Z</time>
      </trkpt>
      <trkpt lat="44.87091" lon="4.70354">
        <ele>758</ele>
        <time>2011-09-24T08:45:14Z</time>
      </trkpt>
      <trkpt lat="44.87091" lon="4.70347">
        <ele>757</ele>
        <time>2011-09-24T08:45:30Z</time>
      </trkpt>
      <trkpt lat="44.87086" lon="4.70346">
        <ele>755</ele>
        <time>2011-09-24T08:47:13Z</time>
      </trkpt>
      <trkpt lat="44.87083" lon="4.70343">
        <ele>755</ele>
        <time>2011-09-24T08:47:43Z</time>
      </trkpt>
      <trkpt lat="44.87083" lon="4.70344">
        <ele>755</ele>
        <time>2011-09-24T08:48:11Z</time>
      </trkpt>
      <trkpt lat="44.87084" lon="4.70344">
        <ele>755</ele>
        <time>2011-09-24T08:52:46Z</time>
      </trkpt>
      <trkpt lat="44.87085" lon="4.70346">
        <ele>751</ele>
        <time>2011-09-24T08:55:45Z</time>
      </trkpt>
      <trkpt lat="44.8708" lon="4.70349">
        <ele>751</ele>
        <time>2011-09-24T08:56:34Z</time>
      </trkpt>
      <trkpt lat="44.87091" lon="4.70349">
        <ele>752</ele>
        <time>2011-09-24T08:56:53Z</time>
      </trkpt>
      <trkpt lat="44.87093" lon="4.70344">
        <ele>752</ele>
        <time>2011-09-24T08:57:01Z</time>
      </trkpt>
      <trkpt lat="44.87088" lon="4.70341">
        <ele>751</ele>
        <time>2011-09-24T08:57:46Z</time>
      </trkpt>
      <trkpt lat="44.87086" lon="4.70334">
        <ele>751</ele>
        <time>2011-09-24T08:57:49Z</time>
      </trkpt>
      <trkpt lat="44.87063" lon="4.70271">
        <ele>752</ele>
        <time>2011-09-24T08:58:20Z</time>
      </trkpt>
      <trkpt lat="44.8705" lon="4.7022">
        <ele>753</ele>
        <time>2011-09-24T08:58:52Z</time>
      </trkpt>
      <trkpt lat="44.87029" lon="4.70169">
        <ele>754</ele>
        <time>2011-09-24T08:59:24Z</time>
      </trkpt>
      <trkpt lat="44.87016" lon="4.70156">
        <ele>755</ele>
        <time>2011-09-24T08:59:36Z</time>
      </trkpt>
      <trkpt lat="44.87003" lon="4.70132">
        <ele>756</ele>
        <time>2011-09-24T08:59:47Z</time>
      </trkpt>
      <trkpt lat="44.86966" lon="4.70119">
        <ele>757</ele>
        <time>2011-09-24T09:00:01Z</time>
      </trkpt>
      <trkpt lat="44.86944" lon="4.70123">
        <ele>758</ele>
        <time>2011-09-24T09:00:09Z</time>
      </trkpt>
      <trkpt lat="44.86939" lon="4.7012">
        <ele>758</ele>
        <time>2011-09-24T09:00:11Z</time>
      </trkpt>
      <trkpt lat="44.86936" lon="4.70115">
        <ele>758</ele>
        <time>2011-09-24T09:00:14Z</time>
      </trkpt>
      <trkpt lat="44.86937" lon="4.70095">
        <ele>759</ele>
        <time>2011-09-24T09:00:31Z</time>
      </trkpt>
      <trkpt lat="44.86934" lon="4.70086">
        <ele>759</ele>
        <time>2011-09-24T09:00:57Z</time>
      </trkpt>
      <trkpt lat="44.86942" lon="4.70074">
        <ele>759</ele>
        <time>2011-09-24T09:01:05Z</time>
      </trkpt>
      <trkpt lat="44.86942" lon="4.70065">
        <ele>759</ele>
        <time>2011-09-24T09:01:08Z</time>
      </trkpt>
      <trkpt lat="44.86938" lon="4.6995">
        <ele>759</ele>
        <time>2011-09-24T09:01:39Z</time>
      </trkpt>
      <trkpt lat="44.86935" lon="4.69945">
        <ele>759</ele>
        <time>2011-09-24T09:01:41Z</time>
      </trkpt>
      <trkpt lat="44.8693" lon="4.69945">
        <ele>759</ele>
        <time>2011-09-24T09:01:43Z</time>
      </trkpt>
      <trkpt lat="44.86907" lon="4.69952">
        <ele>759</ele>
        <time>2011-09-24T09:01:51Z</time>
      </trkpt>
      <trkpt lat="44.86846" lon="4.69928">
        <ele>753</ele>
        <time>2011-09-24T09:02:05Z</time>
      </trkpt>
      <trkpt lat="44.86823" lon="4.69921">
        <ele>753</ele>
        <time>2011-09-24T09:02:11Z</time>
      </trkpt>
      <trkpt lat="44.86653" lon="4.69963">
        <ele>749</ele>
        <time>2011-09-24T09:02:42Z</time>
      </trkpt>
      <trkpt lat="44.86623" lon="4.69984">
        <ele>748</ele>
        <time>2011-09-24T09:02:52Z</time>
      </trkpt>
      <trkpt lat="44.86616" lon="4.69982">
        <ele>748</ele>
        <time>2011-09-24T09:02:59Z</time>
      </trkpt>
      <trkpt lat="44.86615" lon="4.69973">
        <ele>746</ele>
        <time>2011-09-24T09:03:12Z</time>
      </trkpt>
      <trkpt lat="44.86615" lon="4.69961">
        <ele>745</ele>
        <time>2011-09-24T09:03:14Z</time>
      </trkpt>
      <trkpt lat="44.86614" lon="4.69938">
        <ele>737</ele>
        <time>2011-09-24T09:03:18Z</time>
      </trkpt>
      <trkpt lat="44.86609" lon="4.69934">
        <ele>736</ele>
        <time>2011-09-24T09:03:20Z</time>
      </trkpt>
      <trkpt lat="44.86569" lon="4.69932">
        <ele>726</ele>
        <time>2011-09-24T09:03:29Z</time>
      </trkpt>
      <trkpt lat="44.86558" lon="4.69933">
        <ele>725</ele>
        <time>2011-09-24T09:03:32Z</time>
      </trkpt>
      <trkpt lat="44.86543" lon="4.69933">
        <ele>724</ele>
        <time>2011-09-24T09:03:35Z</time>
      </trkpt>
      <trkpt lat="44.86471" lon="4.69969">
        <ele>722</ele>
        <time>2011-09-24T09:03:58Z</time>
      </trkpt>
      <trkpt lat="44.86465" lon="4.6998">
        <ele>721</ele>
        <time>2011-09-24T09:04:00Z</time>
      </trkpt>
      <trkpt lat="44.8645" lon="4.70024">
        <ele>705</ele>
        <time>2011-09-24T09:04:08Z</time>
      </trkpt>
      <trkpt lat="44.86423" lon="4.70093">
        <ele>703</ele>
        <time>2011-09-24T09:04:25Z</time>
      </trkpt>
      <trkpt lat="44.86428" lon="4.70096">
        <ele>696</ele>
        <time>2011-09-24T09:05:39Z</time>
      </trkpt>
      <trkpt lat="44.86433" lon="4.70094">
        <ele>695</ele>
        <time>2011-09-24T09:05:49Z</time>
      </trkpt>
      <trkpt lat="44.86435" lon="4.70092">
        <ele>694</ele>
        <time>2011-09-24T09:05:55Z</time>
      </trkpt>
      <trkpt lat="44.86438" lon="4.70096">
        <ele>694</ele>
        <time>2011-09-24T09:06:00Z</time>
      </trkpt>
      <trkpt lat="44.86437" lon="4.70102">
        <ele>688</ele>
        <time>2011-09-24T09:06:17Z</time>
      </trkpt>
      <trkpt lat="44.86435" lon="4.70109">
        <ele>685</ele>
        <time>2011-09-24T09:06:26Z</time>
      </trkpt>
      <trkpt lat="44.86435" lon="4.70105">
        <ele>680</ele>
        <time>2011-09-24T09:07:40Z</time>
      </trkpt>
      <trkpt lat="44.86441" lon="4.7009">
        <ele>676</ele>
        <time>2011-09-24T09:08:05Z</time>
      </trkpt>
      <trkpt lat="44.86442" lon="4.69965">
        <ele>667</ele>
        <time>2011-09-24T09:08:37Z</time>
      </trkpt>
      <trkpt lat="44.86451" lon="4.69842">
        <ele>660</ele>
        <time>2011-09-24T09:09:07Z</time>
      </trkpt>
      <trkpt lat="44.86452" lon="4.69826">
        <ele>659</ele>
        <time>2011-09-24T09:09:12Z</time>
      </trkpt>
      <trkpt lat="44.86448" lon="4.69814">
        <ele>658</ele>
        <time>2011-09-24T09:09:17Z</time>
      </trkpt>
      <trkpt lat="44.86446" lon="4.69791">
        <ele>657</ele>
        <time>2011-09-24T09:09:22Z</time>
      </trkpt>
      <trkpt lat="44.86404" lon="4.69698">
        <ele>655</ele>
        <time>2011-09-24T09:09:57Z</time>
      </trkpt>
      <trkpt lat="44.86396" lon="4.697">
        <ele>654</ele>
        <time>2011-09-24T09:10:02Z</time>
      </trkpt>
      <trkpt lat="44.8639" lon="4.69703">
        <ele>654</ele>
        <time>2011-09-24T09:10:05Z</time>
      </trkpt>
      <trkpt lat="44.86381" lon="4.6971">
        <ele>653</ele>
        <time>2011-09-24T09:10:12Z</time>
      </trkpt>
      <trkpt lat="44.86377" lon="4.69701">
        <ele>652</ele>
        <time>2011-09-24T09:10:17Z</time>
      </trkpt>
      <trkpt lat="44.8636" lon="4.69645">
        <ele>649</ele>
        <time>2011-09-24T09:10:37Z</time>
      </trkpt>
      <trkpt lat="44.86319" lon="4.69611">
        <ele>645</ele>
        <time>2011-09-24T09:10:58Z</time>
      </trkpt>
      <trkpt lat="44.86317" lon="4.69594">
        <ele>644</ele>
        <time>2011-09-24T09:11:02Z</time>
      </trkpt>
      <trkpt lat="44.86306" lon="4.6951">
        <ele>630</ele>
        <time>2011-09-24T09:11:34Z</time>
      </trkpt>
      <trkpt lat="44.86311" lon="4.69514">
        <ele>622</ele>
        <time>2011-09-24T09:12:15Z</time>
      </trkpt>
      <trkpt lat="44.86311" lon="4.69499">
        <ele>618</ele>
        <time>2011-09-24T09:12:42Z</time>
      </trkpt>
      <trkpt lat="44.86309" lon="4.6946">
        <ele>608</ele>
        <time>2011-09-24T09:13:18Z</time>
      </trkpt>
      <trkpt lat="44.86314" lon="4.69422">
        <ele>597</ele>
        <time>2011-09-24T09:13:58Z</time>
      </trkpt>
      <trkpt lat="44.86312" lon="4.69422">
        <ele>591</ele>
        <time>2011-09-24T09:15:19Z</time>
      </trkpt>
      <trkpt lat="44.86309" lon="4.69416">
        <ele>590</ele>
        <time>2011-09-24T09:15:32Z</time>
      </trkpt>
      <trkpt lat="44.86302" lon="4.69415">
        <ele>588</ele>
        <time>2011-09-24T09:15:44Z</time>
      </trkpt>
      <trkpt lat="44.86292" lon="4.69411">
        <ele>587</ele>
        <time>2011-09-24T09:15:51Z</time>
      </trkpt>
      <trkpt lat="44.86269" lon="4.69397">
        <ele>586</ele>
        <time>2011-09-24T09:16:02Z</time>
      </trkpt>
      <trkpt lat="44.86265" lon="4.69383">
        <ele>584</ele>
        <time>2011-09-24T09:16:10Z</time>
      </trkpt>
      <trkpt lat="44.86255" lon="4.69372">
        <ele>583</ele>
        <time>2011-09-24T09:16:22Z</time>
      </trkpt>
      <trkpt lat="44.8625" lon="4.6937">
        <ele>582</ele>
        <time>2011-09-24T09:16:31Z</time>
      </trkpt>
      <trkpt lat="44.86244" lon="4.69371">
        <ele>581</ele>
        <time>2011-09-24T09:16:46Z</time>
      </trkpt>
      <trkpt lat="44.86232" lon="4.69386">
        <ele>580</ele>
        <time>2011-09-24T09:16:55Z</time>
      </trkpt>
      <trkpt lat="44.86224" lon="4.69405">
        <ele>579</ele>
        <time>2011-09-24T09:17:05Z</time>
      </trkpt>
      <trkpt lat="44.8622" lon="4.69408">
        <ele>578</ele>
        <time>2011-09-24T09:17:08Z</time>
      </trkpt>
      <trkpt lat="44.86196" lon="4.6942">
        <ele>576</ele>
        <time>2011-09-24T09:17:26Z</time>
      </trkpt>
      <trkpt lat="44.86194" lon="4.69426">
        <ele>575</ele>
        <time>2011-09-24T09:17:32Z</time>
      </trkpt>
      <trkpt lat="44.86188" lon="4.69427">
        <ele>575</ele>
        <time>2011-09-24T09:17:46Z</time>
      </trkpt>
      <trkpt lat="44.86186" lon="4.69432">
        <ele>576</ele>
        <time>2011-09-24T09:18:04Z</time>
      </trkpt>
      <trkpt lat="44.86124" lon="4.69504">
        <ele>577</ele>
        <time>2011-09-24T09:18:35Z</time>
      </trkpt>
      <trkpt lat="44.86056" lon="4.69537">
        <ele>577</ele>
        <time>2011-09-24T09:19:06Z</time>
      </trkpt>
      <trkpt lat="44.86041" lon="4.69546">
        <ele>577</ele>
        <time>2011-09-24T09:19:15Z</time>
      </trkpt>
      <trkpt lat="44.86028" lon="4.69553">
        <ele>576</ele>
        <time>2011-09-24T09:19:28Z</time>
      </trkpt>
      <trkpt lat="44.85989" lon="4.69547">
        <ele>574</ele>
        <time>2011-09-24T09:20:00Z</time>
      </trkpt>
      <trkpt lat="44.85981" lon="4.69557">
        <ele>574</ele>
        <time>2011-09-24T09:20:06Z</time>
      </trkpt>
      <trkpt lat="44.85935" lon="4.69576">
        <ele>576</ele>
        <time>2011-09-24T09:20:37Z</time>
      </trkpt>
      <trkpt lat="44.85898" lon="4.69576">
        <ele>578</ele>
        <time>2011-09-24T09:21:09Z</time>
      </trkpt>
      <trkpt lat="44.85842" lon="4.69594">
        <ele>581</ele>
        <time>2011-09-24T09:21:40Z</time>
      </trkpt>
      <trkpt lat="44.85798" lon="4.69594">
        <ele>583</ele>
        <time>2011-09-24T09:22:07Z</time>
      </trkpt>
      <trkpt lat="44.85796" lon="4.69589">
        <ele>583</ele>
        <time>2011-09-24T09:22:11Z</time>
      </trkpt>
      <trkpt lat="44.858" lon="4.69585">
        <ele>583</ele>
        <time>2011-09-24T09:22:16Z</time>
      </trkpt>
      <trkpt lat="44.8581" lon="4.69581">
        <ele>584</ele>
        <time>2011-09-24T09:22:26Z</time>
      </trkpt>
      <trkpt lat="44.85815" lon="4.69567">
        <ele>584</ele>
        <time>2011-09-24T09:22:36Z</time>
      </trkpt>
      <trkpt lat="44.85817" lon="4.69546">
        <ele>586</ele>
        <time>2011-09-24T09:22:51Z</time>
      </trkpt>
      <trkpt lat="44.8583" lon="4.69518">
        <ele>588</ele>
        <time>2011-09-24T09:23:16Z</time>
      </trkpt>
      <trkpt lat="44.85835" lon="4.69518">
        <ele>588</ele>
        <time>2011-09-24T09:23:24Z</time>
      </trkpt>
      <trkpt lat="44.85835" lon="4.69523">
        <ele>590</ele>
        <time>2011-09-24T09:24:20Z</time>
      </trkpt>
      <trkpt lat="44.85831" lon="4.69526">
        <ele>591</ele>
        <time>2011-09-24T09:24:40Z</time>
      </trkpt>
      <trkpt lat="44.85838" lon="4.69517">
        <ele>594</ele>
        <time>2011-09-24T09:25:09Z</time>
      </trkpt>
      <trkpt lat="44.85848" lon="4.69506">
        <ele>600</ele>
        <time>2011-09-24T09:25:38Z</time>
      </trkpt>
      <trkpt lat="44.85882" lon="4.69483">
        <ele>604</ele>
        <time>2011-09-24T09:26:08Z</time>
      </trkpt>
      <trkpt lat="44.85886" lon="4.69473">
        <ele>605</ele>
        <time>2011-09-24T09:26:15Z</time>
      </trkpt>
      <trkpt lat="44.85887" lon="4.69459">
        <ele>606</ele>
        <time>2011-09-24T09:26:23Z</time>
      </trkpt>
      <trkpt lat="44.85886" lon="4.69444">
        <ele>608</ele>
        <time>2011-09-24T09:26:34Z</time>
      </trkpt>
      <trkpt lat="44.85901" lon="4.69399">
        <ele>613</ele>
        <time>2011-09-24T09:27:05Z</time>
      </trkpt>
      <trkpt lat="44.85928" lon="4.69368">
        <ele>619</ele>
        <time>2011-09-24T09:27:37Z</time>
      </trkpt>
      <trkpt lat="44.85929" lon="4.6936">
        <ele>620</ele>
        <time>2011-09-24T09:27:42Z</time>
      </trkpt>
      <trkpt lat="44.85951" lon="4.69313">
        <ele>627</ele>
        <time>2011-09-24T09:28:13Z</time>
      </trkpt>
      <trkpt lat="44.85977" lon="4.69269">
        <ele>633</ele>
        <time>2011-09-24T09:28:47Z</time>
      </trkpt>
      <trkpt lat="44.85994" lon="4.69219">
        <ele>639</ele>
        <time>2011-09-24T09:29:19Z</time>
      </trkpt>
      <trkpt lat="44.86008" lon="4.69156">
        <ele>645</ele>
        <time>2011-09-24T09:29:53Z</time>
      </trkpt>
      <trkpt lat="44.86018" lon="4.691">
        <ele>648</ele>
        <time>2011-09-24T09:30:28Z</time>
      </trkpt>
      <trkpt lat="44.86024" lon="4.69055">
        <ele>648</ele>
        <time>2011-09-24T09:30:59Z</time>
      </trkpt>
      <trkpt lat="44.86034" lon="4.69022">
        <ele>650</ele>
        <time>2011-09-24T09:31:33Z</time>
      </trkpt>
      <trkpt lat="44.86032" lon="4.69013">
        <ele>651</ele>
        <time>2011-09-24T09:31:40Z</time>
      </trkpt>
      <trkpt lat="44.86039" lon="4.68991">
        <ele>653</ele>
        <time>2011-09-24T09:32:00Z</time>
      </trkpt>
      <trkpt lat="44.86038" lon="4.68985">
        <ele>655</ele>
        <time>2011-09-24T09:32:10Z</time>
      </trkpt>
      <trkpt lat="44.86034" lon="4.68951">
        <ele>659</ele>
        <time>2011-09-24T09:32:45Z</time>
      </trkpt>
      <trkpt lat="44.8603" lon="4.68925">
        <ele>662</ele>
        <time>2011-09-24T09:33:17Z</time>
      </trkpt>
      <trkpt lat="44.86028" lon="4.68919">
        <ele>663</ele>
        <time>2011-09-24T09:33:19Z</time>
      </trkpt>
      <trkpt lat="44.86018" lon="4.68882">
        <ele>666</ele>
        <time>2011-09-24T09:33:52Z</time>
      </trkpt>
      <trkpt lat="44.8601" lon="4.68831">
        <ele>670</ele>
        <time>2011-09-24T09:34:25Z</time>
      </trkpt>
      <trkpt lat="44.8601" lon="4.68795">
        <ele>672</ele>
        <time>2011-09-24T09:34:51Z</time>
      </trkpt>
      <trkpt lat="44.86005" lon="4.68799">
        <ele>673</ele>
        <time>2011-09-24T09:35:08Z</time>
      </trkpt>
      <trkpt lat="44.86004" lon="4.68792">
        <ele>674</ele>
        <time>2011-09-24T09:35:13Z</time>
      </trkpt>
      <trkpt lat="44.86007" lon="4.68778">
        <ele>676</ele>
        <time>2011-09-24T09:35:20Z</time>
      </trkpt>
      <trkpt lat="44.8601" lon="4.68771">
        <ele>677</ele>
        <time>2011-09-24T09:35:24Z</time>
      </trkpt>
      <trkpt lat="44.86023" lon="4.6876">
        <ele>679</ele>
        <time>2011-09-24T09:35:33Z</time>
      </trkpt>
      <trkpt lat="44.86062" lon="4.68759">
        <ele>683</ele>
        <time>2011-09-24T09:36:01Z</time>
      </trkpt>
      <trkpt lat="44.86064" lon="4.68765">
        <ele>684</ele>
        <time>2011-09-24T09:36:06Z</time>
      </trkpt>
      <trkpt lat="44.86068" lon="4.68761">
        <ele>686</ele>
        <time>2011-09-24T09:36:43Z</time>
      </trkpt>
      <trkpt lat="44.86144" lon="4.68794">
        <ele>691</ele>
        <time>2011-09-24T09:37:14Z</time>
      </trkpt>
      <trkpt lat="44.86253" lon="4.68762">
        <ele>698</ele>
        <time>2011-09-24T09:37:46Z</time>
      </trkpt>
      <trkpt lat="44.86332" lon="4.68759">
        <ele>700</ele>
        <time>2011-09-24T09:38:08Z</time>
      </trkpt>
      <trkpt lat="44.86368" lon="4.68694">
        <ele>698</ele>
        <time>2011-09-24T09:38:25Z</time>
      </trkpt>
      <trkpt lat="44.86378" lon="4.68616">
        <ele>692</ele>
        <time>2011-09-24T09:38:55Z</time>
      </trkpt>
      <trkpt lat="44.86386" lon="4.68506">
        <ele>689</ele>
        <time>2011-09-24T09:39:21Z</time>
      </trkpt>
      <trkpt lat="44.86387" lon="4.6846">
        <ele>683</ele>
        <time>2011-09-24T09:39:29Z</time>
      </trkpt>
      <trkpt lat="44.86411" lon="4.684">
        <ele>681</ele>
        <time>2011-09-24T09:39:39Z</time>
      </trkpt>
      <trkpt lat="44.86394" lon="4.68297">
        <ele>680</ele>
        <time>2011-09-24T09:39:55Z</time>
      </trkpt>
      <trkpt lat="44.86322" lon="4.68196">
        <ele>680</ele>
        <time>2011-09-24T09:40:26Z</time>
      </trkpt>
      <trkpt lat="44.86316" lon="4.68192">
        <ele>679</ele>
        <time>2011-09-24T09:40:28Z</time>
      </trkpt>
      <trkpt lat="44.86279" lon="4.68123">
        <ele>663</ele>
        <time>2011-09-24T09:40:43Z</time>
      </trkpt>
      <trkpt lat="44.86277" lon="4.68092">
        <ele>662</ele>
        <time>2011-09-24T09:40:47Z</time>
      </trkpt>
      <trkpt lat="44.86282" lon="4.68077">
        <ele>662</ele>
        <time>2011-09-24T09:40:49Z</time>
      </trkpt>
      <trkpt lat="44.863" lon="4.68048">
        <ele>661</ele>
        <time>2011-09-24T09:41:00Z</time>
      </trkpt>
      <trkpt lat="44.86299" lon="4.68039">
        <ele>661</ele>
        <time>2011-09-24T09:41:05Z</time>
      </trkpt>
      <trkpt lat="44.86254" lon="4.67975">
        <ele>659</ele>
        <time>2011-09-24T09:41:37Z</time>
      </trkpt>
      <trkpt lat="44.86214" lon="4.67915">
        <ele>657</ele>
        <time>2011-09-24T09:42:08Z</time>
      </trkpt>
      <trkpt lat="44.86159" lon="4.67857">
        <ele>655</ele>
        <time>2011-09-24T09:42:40Z</time>
      </trkpt>
      <trkpt lat="44.86128" lon="4.67788">
        <ele>656</ele>
        <time>2011-09-24T09:43:10Z</time>
      </trkpt>
      <trkpt lat="44.86071" lon="4.67734">
        <ele>659</ele>
        <time>2011-09-24T09:43:44Z</time>
      </trkpt>
      <trkpt lat="44.86023" lon="4.67667">
        <ele>662</ele>
        <time>2011-09-24T09:44:15Z</time>
      </trkpt>
      <trkpt lat="44.85958" lon="4.67621">
        <ele>665</ele>
        <time>2011-09-24T09:44:46Z</time>
      </trkpt>
      <trkpt lat="44.85866" lon="4.67573">
        <ele>670</ele>
        <time>2011-09-24T09:45:18Z</time>
      </trkpt>
      <trkpt lat="44.8582" lon="4.6755">
        <ele>673</ele>
        <time>2011-09-24T09:45:43Z</time>
      </trkpt>
      <trkpt lat="44.85816" lon="4.67555">
        <ele>676</ele>
        <time>2011-09-24T09:46:57Z</time>
      </trkpt>
      <trkpt lat="44.85819" lon="4.67555">
        <ele>679</ele>
        <time>2011-09-24T09:47:59Z</time>
      </trkpt>
      <trkpt lat="44.8582" lon="4.67555">
        <ele>679</ele>
        <time>2011-09-24T09:52:06Z</time>
      </trkpt>
      <trkpt lat="44.85821" lon="4.67548">
        <ele>679</ele>
        <time>2011-09-24T09:52:13Z</time>
      </trkpt>
      <trkpt lat="44.85822" lon="4.6755">
        <ele>681</ele>
        <time>2011-09-24T09:55:13Z</time>
      </trkpt>
      <trkpt lat="44.85818" lon="4.67553">
        <ele>682</ele>
        <time>2011-09-24T09:57:10Z</time>
      </trkpt>
      <trkpt lat="44.85818" lon="4.67553">
        <ele>680</ele>
        <time>2011-09-24T10:01:36Z</time>
      </trkpt>
      <trkpt lat="44.85817" lon="4.67552">
        <ele>680</ele>
        <time>2011-09-24T10:02:05Z</time>
      </trkpt>
      <trkpt lat="44.85814" lon="4.67555">
        <ele>681</ele>
        <time>2011-09-24T10:02:40Z</time>
      </trkpt>
      <trkpt lat="44.85814" lon="4.67561">
        <ele>682</ele>
        <time>2011-09-24T10:03:39Z</time>
      </trkpt>
      <trkpt lat="44.85819" lon="4.67559">
        <ele>682</ele>
        <time>2011-09-24T10:05:08Z</time>
      </trkpt>
      <trkpt lat="44.85817" lon="4.67555">
        <ele>682</ele>
        <time>2011-09-24T10:06:45Z</time>
      </trkpt>
      <trkpt lat="44.85823" lon="4.67554">
        <ele>683</ele>
        <time>2011-09-24T10:06:49Z</time>
      </trkpt>
      <trkpt lat="44.85859" lon="4.6757">
        <ele>684</ele>
        <time>2011-09-24T10:07:10Z</time>
      </trkpt>
      <trkpt lat="44.85984" lon="4.67631">
        <ele>689</ele>
        <time>2011-09-24T10:07:42Z</time>
      </trkpt>
      <trkpt lat="44.86081" lon="4.67743">
        <ele>689</ele>
        <time>2011-09-24T10:08:12Z</time>
      </trkpt>
      <trkpt lat="44.86258" lon="4.67992">
        <ele>674</ele>
        <time>2011-09-24T10:08:41Z</time>
      </trkpt>
      <trkpt lat="44.86247" lon="4.67997">
        <ele>673</ele>
        <time>2011-09-24T10:08:45Z</time>
      </trkpt>
      <trkpt lat="44.86235" lon="4.67994">
        <ele>672</ele>
        <time>2011-09-24T10:08:49Z</time>
      </trkpt>
      <trkpt lat="44.86202" lon="4.67954">
        <ele>664</ele>
        <time>2011-09-24T10:09:00Z</time>
      </trkpt>
      <trkpt lat="44.86013" lon="4.67846">
        <ele>660</ele>
        <time>2011-09-24T10:09:32Z</time>
      </trkpt>
      <trkpt lat="44.85748" lon="4.67818">
        <ele>650</ele>
        <time>2011-09-24T10:10:04Z</time>
      </trkpt>
      <trkpt lat="44.85532" lon="4.67854">
        <ele>643</ele>
        <time>2011-09-24T10:10:29Z</time>
      </trkpt>
      <trkpt lat="44.85489" lon="4.67852">
        <ele>635</ele>
        <time>2011-09-24T10:10:35Z</time>
      </trkpt>
      <trkpt lat="44.85461" lon="4.67838">
        <ele>629</ele>
        <time>2011-09-24T10:10:39Z</time>
      </trkpt>
      <trkpt lat="44.85416" lon="4.67803">
        <ele>621</ele>
        <time>2011-09-24T10:10:51Z</time>
      </trkpt>
      <trkpt lat="44.85415" lon="4.67796">
        <ele>620</ele>
        <time>2011-09-24T10:10:54Z</time>
      </trkpt>
      <trkpt lat="44.85405" lon="4.67795">
        <ele>615</ele>
        <time>2011-09-24T10:11:02Z</time>
      </trkpt>
      <trkpt lat="44.85333" lon="4.67806">
        <ele>601</ele>
        <time>2011-09-24T10:11:33Z</time>
      </trkpt>
      <trkpt lat="44.85235" lon="4.67789">
        <ele>583</ele>
        <time>2011-09-24T10:12:04Z</time>
      </trkpt>
      <trkpt lat="44.85175" lon="4.67819">
        <ele>582</ele>
        <time>2011-09-24T10:12:34Z</time>
      </trkpt>
      <trkpt lat="44.8511" lon="4.67823">
        <ele>582</ele>
        <time>2011-09-24T10:13:07Z</time>
      </trkpt>
      <trkpt lat="44.85069" lon="4.67832">
        <ele>583</ele>
        <time>2011-09-24T10:13:32Z</time>
      </trkpt>
      <trkpt lat="44.85066" lon="4.67837">
        <ele>583</ele>
        <time>2011-09-24T10:13:35Z</time>
      </trkpt>
      <trkpt lat="44.85066" lon="4.67845">
        <ele>583</ele>
        <time>2011-09-24T10:13:39Z</time>
      </trkpt>
      <trkpt lat="44.85056" lon="4.67894">
        <ele>584</ele>
        <time>2011-09-24T10:14:11Z</time>
      </trkpt>
      <trkpt lat="44.85052" lon="4.67945">
        <ele>586</ele>
        <time>2011-09-24T10:14:42Z</time>
      </trkpt>
      <trkpt lat="44.85049" lon="4.67952">
        <ele>587</ele>
        <time>2011-09-24T10:14:47Z</time>
      </trkpt>
      <trkpt lat="44.85051" lon="4.68">
        <ele>589</ele>
        <time>2011-09-24T10:15:17Z</time>
      </trkpt>
      <trkpt lat="44.85059" lon="4.68081">
        <ele>593</ele>
        <time>2011-09-24T10:15:48Z</time>
      </trkpt>
      <trkpt lat="44.85061" lon="4.68095">
        <ele>593</ele>
        <time>2011-09-24T10:15:52Z</time>
      </trkpt>
      <trkpt lat="44.85059" lon="4.68103">
        <ele>594</ele>
        <time>2011-09-24T10:15:54Z</time>
      </trkpt>
      <trkpt lat="44.85004" lon="4.68172">
        <ele>598</ele>
        <time>2011-09-24T10:16:30Z</time>
      </trkpt>
      <trkpt lat="44.84976" lon="4.68198">
        <ele>601</ele>
        <time>2011-09-24T10:16:59Z</time>
      </trkpt>
      <trkpt lat="44.84972" lon="4.68212">
        <ele>602</ele>
        <time>2011-09-24T10:17:08Z</time>
      </trkpt>
      <trkpt lat="44.84947" lon="4.68269">
        <ele>605</ele>
        <time>2011-09-24T10:17:39Z</time>
      </trkpt>
      <trkpt lat="44.84906" lon="4.68339">
        <ele>609</ele>
        <time>2011-09-24T10:18:09Z</time>
      </trkpt>
      <trkpt lat="44.84864" lon="4.68348">
        <ele>612</ele>
        <time>2011-09-24T10:18:44Z</time>
      </trkpt>
      <trkpt lat="44.84842" lon="4.68332">
        <ele>616</ele>
        <time>2011-09-24T10:19:24Z</time>
      </trkpt>
      <trkpt lat="44.8484" lon="4.68329">
        <ele>617</ele>
        <time>2011-09-24T10:20:08Z</time>
      </trkpt>
      <trkpt lat="44.84835" lon="4.68328">
        <ele>618</ele>
        <time>2011-09-24T10:20:22Z</time>
      </trkpt>
      <trkpt lat="44.8482" lon="4.68314">
        <ele>621</ele>
        <time>2011-09-24T10:21:08Z</time>
      </trkpt>
      <trkpt lat="44.84811" lon="4.68309">
        <ele>621</ele>
        <time>2011-09-24T10:21:13Z</time>
      </trkpt>
      <trkpt lat="44.84803" lon="4.68312">
        <ele>622</ele>
        <time>2011-09-24T10:21:18Z</time>
      </trkpt>
      <trkpt lat="44.84748" lon="4.68343">
        <ele>623</ele>
        <time>2011-09-24T10:21:50Z</time>
      </trkpt>
      <trkpt lat="44.84738" lon="4.68346">
        <ele>623</ele>
        <time>2011-09-24T10:21:56Z</time>
      </trkpt>
      <trkpt lat="44.84718" lon="4.68346">
        <ele>622</ele>
        <time>2011-09-24T10:22:05Z</time>
      </trkpt>
      <trkpt lat="44.84684" lon="4.68354">
        <ele>616</ele>
        <time>2011-09-24T10:22:28Z</time>
      </trkpt>
      <trkpt lat="44.84636" lon="4.68346">
        <ele>608</ele>
        <time>2011-09-24T10:22:56Z</time>
      </trkpt>
      <trkpt lat="44.84598" lon="4.68352">
        <ele>601</ele>
        <time>2011-09-24T10:23:29Z</time>
      </trkpt>
      <trkpt lat="44.84593" lon="4.68352">
        <ele>601</ele>
        <time>2011-09-24T10:23:32Z</time>
      </trkpt>
      <trkpt lat="44.84591" lon="4.68358">
        <ele>599</ele>
        <time>2011-09-24T10:23:46Z</time>
      </trkpt>
      <trkpt lat="44.84588" lon="4.68356">
        <ele>594</ele>
        <time>2011-09-24T10:24:21Z</time>
      </trkpt>
      <trkpt lat="44.84587" lon="4.68349">
        <ele>592</ele>
        <time>2011-09-24T10:24:49Z</time>
      </trkpt>
      <trkpt lat="44.84591" lon="4.68356">
        <ele>583</ele>
        <time>2011-09-24T10:26:30Z</time>
      </trkpt>
      <trkpt lat="44.84595" lon="4.6836">
        <ele>583</ele>
        <time>2011-09-24T10:26:49Z</time>
      </trkpt>
      <trkpt lat="44.84598" lon="4.68356">
        <ele>582</ele>
        <time>2011-09-24T10:26:55Z</time>
      </trkpt>
      <trkpt lat="44.84594" lon="4.68352">
        <ele>581</ele>
        <time>2011-09-24T10:26:57Z</time>
      </trkpt>
      <trkpt lat="44.84579" lon="4.6835">
        <ele>578</ele>
        <time>2011-09-24T10:27:07Z</time>
      </trkpt>
      <trkpt lat="44.84561" lon="4.68351">
        <ele>575</ele>
        <time>2011-09-24T10:27:17Z</time>
      </trkpt>
      <trkpt lat="44.84553" lon="4.68342">
        <ele>575</ele>
        <time>2011-09-24T10:27:28Z</time>
      </trkpt>
      <trkpt lat="44.84543" lon="4.68344">
        <ele>573</ele>
        <time>2011-09-24T10:27:38Z</time>
      </trkpt>
      <trkpt lat="44.84492" lon="4.68342">
        <ele>568</ele>
        <time>2011-09-24T10:28:11Z</time>
      </trkpt>
      <trkpt lat="44.84489" lon="4.68338">
        <ele>567</ele>
        <time>2011-09-24T10:28:27Z</time>
      </trkpt>
      <trkpt lat="44.84477" lon="4.68345">
        <ele>565</ele>
        <time>2011-09-24T10:28:36Z</time>
      </trkpt>
      <trkpt lat="44.84416" lon="4.68341">
        <ele>552</ele>
        <time>2011-09-24T10:29:10Z</time>
      </trkpt>
      <trkpt lat="44.84346" lon="4.68343">
        <ele>544</ele>
        <time>2011-09-24T10:29:36Z</time>
      </trkpt>
      <trkpt lat="44.84267" lon="4.68303">
        <ele>531</ele>
        <time>2011-09-24T10:30:11Z</time>
      </trkpt>
      <trkpt lat="44.84218" lon="4.68264">
        <ele>519</ele>
        <time>2011-09-24T10:30:42Z</time>
      </trkpt>
      <trkpt lat="44.84214" lon="4.68252">
        <ele>517</ele>
        <time>2011-09-24T10:30:47Z</time>
      </trkpt>
      <trkpt lat="44.84211" lon="4.68252">
        <ele>513</ele>
        <time>2011-09-24T10:31:19Z</time>
      </trkpt>
      <trkpt lat="44.84131" lon="4.68236">
        <ele>500</ele>
        <time>2011-09-24T10:31:50Z</time>
      </trkpt>
      <trkpt lat="44.84101" lon="4.68241">
        <ele>498</ele>
        <time>2011-09-24T10:32:02Z</time>
      </trkpt>
      <trkpt lat="44.84067" lon="4.68272">
        <ele>495</ele>
        <time>2011-09-24T10:32:14Z</time>
      </trkpt>
      <trkpt lat="44.84022" lon="4.68342">
        <ele>469</ele>
        <time>2011-09-24T10:32:28Z</time>
      </trkpt>
      <trkpt lat="44.84003" lon="4.6843">
        <ele>469</ele>
        <time>2011-09-24T10:32:58Z</time>
      </trkpt>
      <trkpt lat="44.83993" lon="4.68437">
        <ele>468</ele>
        <time>2011-09-24T10:33:13Z</time>
      </trkpt>
      <trkpt lat="44.83992" lon="4.68444">
        <ele>468</ele>
        <time>2011-09-24T10:33:19Z</time>
      </trkpt>
      <trkpt lat="44.8399" lon="4.68453">
        <ele>468</ele>
        <time>2011-09-24T10:33:21Z</time>
      </trkpt>
      <trkpt lat="44.83984" lon="4.68469">
        <ele>466</ele>
        <time>2011-09-24T10:33:24Z</time>
      </trkpt>
      <trkpt lat="44.83961" lon="4.68533">
        <ele>463</ele>
        <time>2011-09-24T10:33:35Z</time>
      </trkpt>
      <trkpt lat="44.83958" lon="4.68557">
        <ele>463</ele>
        <time>2011-09-24T10:33:40Z</time>
      </trkpt>
      <trkpt lat="44.83966" lon="4.68603">
        <ele>461</ele>
        <time>2011-09-24T10:33:49Z</time>
      </trkpt>
      <trkpt lat="44.83973" lon="4.68665">
        <ele>456</ele>
        <time>2011-09-24T10:33:58Z</time>
      </trkpt>
      <trkpt lat="44.83984" lon="4.68768">
        <ele>450</ele>
        <time>2011-09-24T10:34:26Z</time>
      </trkpt>
      <trkpt lat="44.83989" lon="4.68769">
        <ele>449</ele>
        <time>2011-09-24T10:34:39Z</time>
      </trkpt>
      <trkpt lat="44.83992" lon="4.68769">
        <ele>448</ele>
        <time>2011-09-24T10:34:46Z</time>
      </trkpt>
      <trkpt lat="44.8399" lon="4.68781">
        <ele>447</ele>
        <time>2011-09-24T10:34:51Z</time>
      </trkpt>
      <trkpt lat="44.83987" lon="4.68789">
        <ele>446</ele>
        <time>2011-09-24T10:34:54Z</time>
      </trkpt>
      <trkpt lat="44.83988" lon="4.68804">
        <ele>444</ele>
        <time>2011-09-24T10:35:05Z</time>
      </trkpt>
      <trkpt lat="44.83983" lon="4.689">
        <ele>435</ele>
        <time>2011-09-24T10:35:37Z</time>
      </trkpt>
      <trkpt lat="44.83964" lon="4.68976">
        <ele>429</ele>
        <time>2011-09-24T10:36:04Z</time>
      </trkpt>
      <trkpt lat="44.83914" lon="4.69051">
        <ele>418</ele>
        <time>2011-09-24T10:36:35Z</time>
      </trkpt>
      <trkpt lat="44.83913" lon="4.69059">
        <ele>417</ele>
        <time>2011-09-24T10:36:38Z</time>
      </trkpt>
      <trkpt lat="44.83913" lon="4.69064">
        <ele>408</ele>
        <time>2011-09-24T10:37:47Z</time>
      </trkpt>
      <trkpt lat="44.83906" lon="4.69076">
        <ele>402</ele>
        <time>2011-09-24T10:38:34Z</time>
      </trkpt>
      <trkpt lat="44.83862" lon="4.69169">
        <ele>392</ele>
        <time>2011-09-24T10:39:06Z</time>
      </trkpt>
      <trkpt lat="44.8384" lon="4.69188">
        <ele>388</ele>
        <time>2011-09-24T10:39:17Z</time>
      </trkpt>
      <trkpt lat="44.83816" lon="4.69189">
        <ele>379</ele>
        <time>2011-09-24T10:39:39Z</time>
      </trkpt>
      <trkpt lat="44.83808" lon="4.69195">
        <ele>376</ele>
        <time>2011-09-24T10:39:48Z</time>
      </trkpt>
      <trkpt lat="44.83807" lon="4.69208">
        <ele>375</ele>
        <time>2011-09-24T10:39:53Z</time>
      </trkpt>
      <trkpt lat="44.83808" lon="4.69242">
        <ele>372</ele>
        <time>2011-09-24T10:40:03Z</time>
      </trkpt>
      <trkpt lat="44.83816" lon="4.69259">
        <ele>371</ele>
        <time>2011-09-24T10:40:07Z</time>
      </trkpt>
      <trkpt lat="44.8381" lon="4.69259">
        <ele>367</ele>
        <time>2011-09-24T10:40:15Z</time>
      </trkpt>
      <trkpt lat="44.83804" lon="4.69266">
        <ele>363</ele>
        <time>2011-09-24T10:40:44Z</time>
      </trkpt>
      <trkpt lat="44.83803" lon="4.69269">
        <ele>363</ele>
        <time>2011-09-24T10:41:06Z</time>
      </trkpt>
      <trkpt lat="44.83808" lon="4.69273">
        <ele>360</ele>
        <time>2011-09-24T10:41:19Z</time>
      </trkpt>
      <trkpt lat="44.83816" lon="4.69284">
        <ele>359</ele>
        <time>2011-09-24T10:41:23Z</time>
      </trkpt>
      <trkpt lat="44.83811" lon="4.693">
        <ele>356</ele>
        <time>2011-09-24T10:41:27Z</time>
      </trkpt>
      <trkpt lat="44.83795" lon="4.69317">
        <ele>349</ele>
        <time>2011-09-24T10:41:32Z</time>
      </trkpt>
      <trkpt lat="44.83756" lon="4.69332">
        <ele>342</ele>
        <time>2011-09-24T10:41:41Z</time>
      </trkpt>
      <trkpt lat="44.83703" lon="4.69344">
        <ele>343</ele>
        <time>2011-09-24T10:41:55Z</time>
      </trkpt>
      <trkpt lat="44.83688" lon="4.69378">
        <ele>342</ele>
        <time>2011-09-24T10:42:07Z</time>
      </trkpt>
      <trkpt lat="44.83682" lon="4.6938">
        <ele>342</ele>
        <time>2011-09-24T10:42:09Z</time>
      </trkpt>
      <trkpt lat="44.83635" lon="4.69401">
        <ele>337</ele>
        <time>2011-09-24T10:42:20Z</time>
      </trkpt>
      <trkpt lat="44.83625" lon="4.69407">
        <ele>337</ele>
        <time>2011-09-24T10:42:23Z</time>
      </trkpt>
      <trkpt lat="44.83573" lon="4.6943">
        <ele>330</ele>
        <time>2011-09-24T10:42:35Z</time>
      </trkpt>
      <trkpt lat="44.83553" lon="4.69428">
        <ele>330</ele>
        <time>2011-09-24T10:42:40Z</time>
      </trkpt>
      <trkpt lat="44.83549" lon="4.69434">
        <ele>329</ele>
        <time>2011-09-24T10:42:43Z</time>
      </trkpt>
      <trkpt lat="44.83549" lon="4.69451">
        <ele>328</ele>
        <time>2011-09-24T10:42:49Z</time>
      </trkpt>
      <trkpt lat="44.83545" lon="4.69455">
        <ele>327</ele>
        <time>2011-09-24T10:43:07Z</time>
      </trkpt>
      <trkpt lat="44.83546" lon="4.69469">
        <ele>325</ele>
        <time>2011-09-24T10:43:13Z</time>
      </trkpt>
      <trkpt lat="44.8355" lon="4.69509">
        <ele>323</ele>
        <time>2011-09-24T10:43:28Z</time>
      </trkpt>
      <trkpt lat="44.83547" lon="4.69522">
        <ele>322</ele>
        <time>2011-09-24T10:43:33Z</time>
      </trkpt>
      <trkpt lat="44.83492" lon="4.69604">
        <ele>320</ele>
        <time>2011-09-24T10:44:06Z</time>
      </trkpt>
      <trkpt lat="44.83463" lon="4.6967">
        <ele>320</ele>
        <time>2011-09-24T10:44:20Z</time>
      </trkpt>
      <trkpt lat="44.83458" lon="4.69681">
        <ele>319</ele>
        <time>2011-09-24T10:44:22Z</time>
      </trkpt>
      <trkpt lat="44.83448" lon="4.69688">
        <ele>319</ele>
        <time>2011-09-24T10:44:25Z</time>
      </trkpt>
      <trkpt lat="44.83438" lon="4.69688">
        <ele>318</ele>
        <time>2011-09-24T10:44:30Z</time>
      </trkpt>
      <trkpt lat="44.8338" lon="4.69673">
        <ele>316</ele>
        <time>2011-09-24T10:44:46Z</time>
      </trkpt>
      <trkpt lat="44.83373" lon="4.69684">
        <ele>316</ele>
        <time>2011-09-24T10:44:49Z</time>
      </trkpt>
      <trkpt lat="44.83342" lon="4.69726">
        <ele>317</ele>
        <time>2011-09-24T10:45:03Z</time>
      </trkpt>
      <trkpt lat="44.83338" lon="4.69734">
        <ele>315</ele>
        <time>2011-09-24T10:45:10Z</time>
      </trkpt>
      <trkpt lat="44.8334" lon="4.6974">
        <ele>315</ele>
        <time>2011-09-24T10:45:15Z</time>
      </trkpt>
      <trkpt lat="44.83338" lon="4.69743">
        <ele>310</ele>
        <time>2011-09-24T10:45:44Z</time>
      </trkpt>
      <trkpt lat="44.83332" lon="4.69741">
        <ele>307</ele>
        <time>2011-09-24T10:46:03Z</time>
      </trkpt>
      <trkpt lat="44.83241" lon="4.69717">
        <ele>299</ele>
        <time>2011-09-24T10:46:35Z</time>
      </trkpt>
      <trkpt lat="44.83235" lon="4.69716">
        <ele>298</ele>
        <time>2011-09-24T10:46:37Z</time>
      </trkpt>
      <trkpt lat="44.83159" lon="4.6971">
        <ele>293</ele>
        <time>2011-09-24T10:47:08Z</time>
      </trkpt>
      <trkpt lat="44.83149" lon="4.69719">
        <ele>293</ele>
        <time>2011-09-24T10:47:12Z</time>
      </trkpt>
      <trkpt lat="44.83128" lon="4.69749">
        <ele>291</ele>
        <time>2011-09-24T10:47:23Z</time>
      </trkpt>
      <trkpt lat="44.83116" lon="4.6975">
        <ele>290</ele>
        <time>2011-09-24T10:47:27Z</time>
      </trkpt>
      <trkpt lat="44.83104" lon="4.69754">
        <ele>285</ele>
        <time>2011-09-24T10:47:30Z</time>
      </trkpt>
      <trkpt lat="44.83074" lon="4.69771">
        <ele>283</ele>
        <time>2011-09-24T10:47:39Z</time>
      </trkpt>
      <trkpt lat="44.83052" lon="4.69773">
        <ele>277</ele>
        <time>2011-09-24T10:47:44Z</time>
      </trkpt>
      <trkpt lat="44.8301" lon="4.69774">
        <ele>275</ele>
        <time>2011-09-24T10:47:56Z</time>
      </trkpt>
      <trkpt lat="44.82968" lon="4.69732">
        <ele>271</ele>
        <time>2011-09-24T10:48:17Z</time>
      </trkpt>
      <trkpt lat="44.82946" lon="4.69734">
        <ele>268</ele>
        <time>2011-09-24T10:48:25Z</time>
      </trkpt>
      <trkpt lat="44.82931" lon="4.69753">
        <ele>266</ele>
        <time>2011-09-24T10:48:32Z</time>
      </trkpt>
      <trkpt lat="44.82922" lon="4.69752">
        <ele>265</ele>
        <time>2011-09-24T10:48:37Z</time>
      </trkpt>
      <trkpt lat="44.82902" lon="4.69741">
        <ele>261</ele>
        <time>2011-09-24T10:48:48Z</time>
      </trkpt>
      <trkpt lat="44.829" lon="4.69731">
        <ele>260</ele>
        <time>2011-09-24T10:48:55Z</time>
      </trkpt>
      <trkpt lat="44.82896" lon="4.69727">
        <ele>259</ele>
        <time>2011-09-24T10:49:07Z</time>
      </trkpt>
      <trkpt lat="44.82893" lon="4.69727">
        <ele>252</ele>
        <time>2011-09-24T10:50:43Z</time>
      </trkpt>
      <trkpt lat="44.82872" lon="4.69721">
        <ele>249</ele>
        <time>2011-09-24T10:50:52Z</time>
      </trkpt>
      <trkpt lat="44.82866" lon="4.69724">
        <ele>249</ele>
        <time>2011-09-24T10:50:55Z</time>
      </trkpt>
      <trkpt lat="44.82789" lon="4.6972">
        <ele>241</ele>
        <time>2011-09-24T10:51:26Z</time>
      </trkpt>
      <trkpt lat="44.82781" lon="4.69726">
        <ele>239</ele>
        <time>2011-09-24T10:51:32Z</time>
      </trkpt>
      <trkpt lat="44.82772" lon="4.69722">
        <ele>237</ele>
        <time>2011-09-24T10:51:38Z</time>
      </trkpt>
      <trkpt lat="44.82766" lon="4.69727">
        <ele>236</ele>
        <time>2011-09-24T10:51:41Z</time>
      </trkpt>
      <trkpt lat="44.82752" lon="4.69735">
        <ele>233</ele>
        <time>2011-09-24T10:51:49Z</time>
      </trkpt>
      <trkpt lat="44.82747" lon="4.69732">
        <ele>232</ele>
        <time>2011-09-24T10:51:52Z</time>
      </trkpt>
      <trkpt lat="44.82737" lon="4.69733">
        <ele>230</ele>
        <time>2011-09-24T10:51:58Z</time>
      </trkpt>
      <trkpt lat="44.82675" lon="4.69772">
        <ele>220</ele>
        <time>2011-09-24T10:52:28Z</time>
      </trkpt>
      <trkpt lat="44.82672" lon="4.69777">
        <ele>219</ele>
        <time>2011-09-24T10:52:31Z</time>
      </trkpt>
      <trkpt lat="44.82645" lon="4.69787">
        <ele>214</ele>
        <time>2011-09-24T10:52:41Z</time>
      </trkpt>
      <trkpt lat="44.82636" lon="4.69785">
        <ele>212</ele>
        <time>2011-09-24T10:52:46Z</time>
      </trkpt>
      <trkpt lat="44.82611" lon="4.69784">
        <ele>208</ele>
        <time>2011-09-24T10:52:54Z</time>
      </trkpt>
      <trkpt lat="44.82606" lon="4.6978">
        <ele>207</ele>
        <time>2011-09-24T10:52:57Z</time>
      </trkpt>
      <trkpt lat="44.82605" lon="4.69777">
        <ele>205</ele>
        <time>2011-09-24T10:53:03Z</time>
      </trkpt>
      <trkpt lat="44.82606" lon="4.69771">
        <ele>204</ele>
        <time>2011-09-24T10:53:13Z</time>
      </trkpt>
      <trkpt lat="44.82604" lon="4.69767">
        <ele>192</ele>
        <time>2011-09-24T10:54:51Z</time>
      </trkpt>
      <trkpt lat="44.82602" lon="4.69768">
        <ele>187</ele>
        <time>2011-09-24T10:55:54Z</time>
      </trkpt>
      <trkpt lat="44.826" lon="4.69762">
        <ele>185</ele>
        <time>2011-09-24T10:56:27Z</time>
      </trkpt>
      <trkpt lat="44.82601" lon="4.69755">
        <ele>184</ele>
        <time>2011-09-24T10:56:29Z</time>
      </trkpt>
      <trkpt lat="44.82603" lon="4.69607">
        <ele>172</ele>
        <time>2011-09-24T10:56:51Z</time>
      </trkpt>
      <trkpt lat="44.82591" lon="4.69572">
        <ele>171</ele>
        <time>2011-09-24T10:57:07Z</time>
      </trkpt>
      <trkpt lat="44.82624" lon="4.69484">
        <ele>169</ele>
        <time>2011-09-24T10:57:38Z</time>
      </trkpt>
      <trkpt lat="44.82657" lon="4.69426">
        <ele>168</ele>
        <time>2011-09-24T10:57:54Z</time>
      </trkpt>
      <trkpt lat="44.82676" lon="4.6939">
        <ele>166</ele>
        <time>2011-09-24T10:58:02Z</time>
      </trkpt>
      <trkpt lat="44.82739" lon="4.69269">
        <ele>167</ele>
        <time>2011-09-24T10:58:33Z</time>
      </trkpt>
      <trkpt lat="44.82764" lon="4.69154">
        <ele>168</ele>
        <time>2011-09-24T10:58:58Z</time>
      </trkpt>
      <trkpt lat="44.82823" lon="4.68953">
        <ele>171</ele>
        <time>2011-09-24T10:59:29Z</time>
      </trkpt>
      <trkpt lat="44.82878" lon="4.68686">
        <ele>175</ele>
        <time>2011-09-24T11:00:00Z</time>
      </trkpt>
      <trkpt lat="44.82974" lon="4.68399">
        <ele>164</ele>
        <time>2011-09-24T11:00:30Z</time>
      </trkpt>
      <trkpt lat="44.82994" lon="4.68057">
        <ele>150</ele>
        <time>2011-09-24T11:01:01Z</time>
      </trkpt>
      <trkpt lat="44.8296" lon="4.67745">
        <ele>150</ele>
        <time>2011-09-24T11:01:32Z</time>
      </trkpt>
      <trkpt lat="44.82912" lon="4.6762">
        <ele>150</ele>
        <time>2011-09-24T11:01:56Z</time>
      </trkpt>
      <trkpt lat="44.82892" lon="4.67618">
        <ele>150</ele>
        <time>2011-09-24T11:02:02Z</time>
      </trkpt>
      <trkpt lat="44.82882" lon="4.67621">
        <ele>150</ele>
        <time>2011-09-24T11:02:05Z</time>
      </trkpt>
      <trkpt lat="44.82773" lon="4.6768">
        <ele>158</ele>
        <time>2011-09-24T11:02:31Z</time>
      </trkpt>
      <trkpt lat="44.82727" lon="4.67712">
        <ele>151</ele>
        <time>2011-09-24T11:02:42Z</time>
      </trkpt>
      <trkpt lat="44.82715" lon="4.6772">
        <ele>151</ele>
        <time>2011-09-24T11:02:45Z</time>
      </trkpt>
      <trkpt lat="44.82674" lon="4.67743">
        <ele>150</ele>
        <time>2011-09-24T11:02:54Z</time>
      </trkpt>
      <trkpt lat="44.82647" lon="4.67756">
        <ele>151</ele>
        <time>2011-09-24T11:03:00Z</time>
      </trkpt>
      <trkpt lat="44.82628" lon="4.67776">
        <ele>151</ele>
        <time>2011-09-24T11:03:05Z</time>
      </trkpt>
      <trkpt lat="44.82624" lon="4.67801">
        <ele>151</ele>
        <time>2011-09-24T11:03:09Z</time>
      </trkpt>
      <trkpt lat="44.82619" lon="4.67999">
        <ele>154</ele>
        <time>2011-09-24T11:03:36Z</time>
      </trkpt>
      <trkpt lat="44.82612" lon="4.68012">
        <ele>154</ele>
        <time>2011-09-24T11:03:39Z</time>
      </trkpt>
      <trkpt lat="44.82601" lon="4.68021">
        <ele>154</ele>
        <time>2011-09-24T11:03:42Z</time>
      </trkpt>
      <trkpt lat="44.82601" lon="4.68036">
        <ele>154</ele>
        <time>2011-09-24T11:03:45Z</time>
      </trkpt>
      <trkpt lat="44.82636" lon="4.68121">
        <ele>151</ele>
        <time>2011-09-24T11:04:02Z</time>
      </trkpt>
      <trkpt lat="44.82633" lon="4.6818">
        <ele>151</ele>
        <time>2011-09-24T11:04:10Z</time>
      </trkpt>
      <trkpt lat="44.82621" lon="4.68217">
        <ele>151</ele>
        <time>2011-09-24T11:04:15Z</time>
      </trkpt>
      <trkpt lat="44.82532" lon="4.68402">
        <ele>155</ele>
        <time>2011-09-24T11:04:47Z</time>
      </trkpt>
      <trkpt lat="44.82512" lon="4.68443">
        <ele>154</ele>
        <time>2011-09-24T11:04:53Z</time>
      </trkpt>
      <trkpt lat="44.82505" lon="4.68456">
        <ele>154</ele>
        <time>2011-09-24T11:04:55Z</time>
      </trkpt>
      <trkpt lat="44.82481" lon="4.68561">
        <ele>162</ele>
        <time>2011-09-24T11:05:08Z</time>
      </trkpt>
      <trkpt lat="44.825" lon="4.68806">
        <ele>162</ele>
        <time>2011-09-24T11:05:40Z</time>
      </trkpt>
      <trkpt lat="44.82503" lon="4.68812">
        <ele>163</ele>
        <time>2011-09-24T11:05:41Z</time>
      </trkpt>
      <trkpt lat="44.82528" lon="4.68898">
        <ele>164</ele>
        <time>2011-09-24T11:05:52Z</time>
      </trkpt>
      <trkpt lat="44.82524" lon="4.68999">
        <ele>163</ele>
        <time>2011-09-24T11:06:04Z</time>
      </trkpt>
      <trkpt lat="44.82494" lon="4.69062">
        <ele>162</ele>
        <time>2011-09-24T11:06:13Z</time>
      </trkpt>
      <trkpt lat="44.82429" lon="4.69216">
        <ele>167</ele>
        <time>2011-09-24T11:06:33Z</time>
      </trkpt>
      <trkpt lat="44.8235" lon="4.69427">
        <ele>159</ele>
        <time>2011-09-24T11:07:03Z</time>
      </trkpt>
      <trkpt lat="44.82237" lon="4.69542">
        <ele>162</ele>
        <time>2011-09-24T11:07:35Z</time>
      </trkpt>
      <trkpt lat="44.82123" lon="4.69551">
        <ele>151</ele>
        <time>2011-09-24T11:07:52Z</time>
      </trkpt>
      <trkpt lat="44.82113" lon="4.69544">
        <ele>150</ele>
        <time>2011-09-24T11:07:54Z</time>
      </trkpt>
      <trkpt lat="44.82095" lon="4.69527">
        <ele>151</ele>
        <time>2011-09-24T11:07:58Z</time>
      </trkpt>
      <trkpt lat="44.81924" lon="4.69406">
        <ele>146</ele>
        <time>2011-09-24T11:08:29Z</time>
      </trkpt>
      <trkpt lat="44.81755" lon="4.69452">
        <ele>147</ele>
        <time>2011-09-24T11:08:59Z</time>
      </trkpt>
      <trkpt lat="44.81678" lon="4.69543">
        <ele>149</ele>
        <time>2011-09-24T11:09:17Z</time>
      </trkpt>
      <trkpt lat="44.81624" lon="4.69757">
        <ele>152</ele>
        <time>2011-09-24T11:09:47Z</time>
      </trkpt>
      <trkpt lat="44.81611" lon="4.69835">
        <ele>155</ele>
        <time>2011-09-24T11:09:58Z</time>
      </trkpt>
      <trkpt lat="44.81623" lon="4.6985">
        <ele>156</ele>
        <time>2011-09-24T11:10:00Z</time>
      </trkpt>
      <trkpt lat="44.81638" lon="4.69886">
        <ele>157</ele>
        <time>2011-09-24T11:10:05Z</time>
      </trkpt>
      <trkpt lat="44.81633" lon="4.70024">
        <ele>153</ele>
        <time>2011-09-24T11:10:22Z</time>
      </trkpt>
      <trkpt lat="44.81602" lon="4.70085">
        <ele>153</ele>
        <time>2011-09-24T11:10:30Z</time>
      </trkpt>
      <trkpt lat="44.81597" lon="4.70131">
        <ele>154</ele>
        <time>2011-09-24T11:10:36Z</time>
      </trkpt>
      <trkpt lat="44.81583" lon="4.70139">
        <ele>154</ele>
        <time>2011-09-24T11:10:38Z</time>
      </trkpt>
      <trkpt lat="44.81547" lon="4.70173">
        <ele>154</ele>
        <time>2011-09-24T11:10:44Z</time>
      </trkpt>
      <trkpt lat="44.81546" lon="4.70206">
        <ele>153</ele>
        <time>2011-09-24T11:10:48Z</time>
      </trkpt>
      <trkpt lat="44.81553" lon="4.70216">
        <ele>152</ele>
        <time>2011-09-24T11:10:49Z</time>
      </trkpt>
      <trkpt lat="44.81578" lon="4.70269">
        <ele>149</ele>
        <time>2011-09-24T11:10:55Z</time>
      </trkpt>
      <trkpt lat="44.8158" lon="4.70351">
        <ele>148</ele>
        <time>2011-09-24T11:11:05Z</time>
      </trkpt>
      <trkpt lat="44.81532" lon="4.70565">
        <ele>149</ele>
        <time>2011-09-24T11:11:33Z</time>
      </trkpt>
      <trkpt lat="44.81536" lon="4.70585">
        <ele>148</ele>
        <time>2011-09-24T11:11:36Z</time>
      </trkpt>
      <trkpt lat="44.81552" lon="4.70598">
        <ele>148</ele>
        <time>2011-09-24T11:11:37Z</time>
      </trkpt>
      <trkpt lat="44.81572" lon="4.70617">
        <ele>148</ele>
        <time>2011-09-24T11:11:39Z</time>
      </trkpt>
      <trkpt lat="44.81571" lon="4.70629">
        <ele>148</ele>
        <time>2011-09-24T11:11:41Z</time>
      </trkpt>
      <trkpt lat="44.81567" lon="4.70635">
        <ele>147</ele>
        <time>2011-09-24T11:11:43Z</time>
      </trkpt>
      <trkpt lat="44.81546" lon="4.70641">
        <ele>145</ele>
        <time>2011-09-24T11:11:48Z</time>
      </trkpt>
      <trkpt lat="44.8139" lon="4.70617">
        <ele>144</ele>
        <time>2011-09-24T11:12:19Z</time>
      </trkpt>
      <trkpt lat="44.8138" lon="4.70625">
        <ele>144</ele>
        <time>2011-09-24T11:12:21Z</time>
      </trkpt>
      <trkpt lat="44.81239" lon="4.70828">
        <ele>154</ele>
        <time>2011-09-24T11:12:51Z</time>
      </trkpt>
      <trkpt lat="44.81238" lon="4.7087">
        <ele>153</ele>
        <time>2011-09-24T11:12:57Z</time>
      </trkpt>
      <trkpt lat="44.81246" lon="4.70879">
        <ele>152</ele>
        <time>2011-09-24T11:12:58Z</time>
      </trkpt>
      <trkpt lat="44.81322" lon="4.71012">
        <ele>144</ele>
        <time>2011-09-24T11:13:13Z</time>
      </trkpt>
      <trkpt lat="44.8133" lon="4.71296">
        <ele>145</ele>
        <time>2011-09-24T11:13:45Z</time>
      </trkpt>
      <trkpt lat="44.81339" lon="4.7131">
        <ele>144</ele>
        <time>2011-09-24T11:13:47Z</time>
      </trkpt>
      <trkpt lat="44.815" lon="4.7148">
        <ele>140</ele>
        <time>2011-09-24T11:14:17Z</time>
      </trkpt>
      <trkpt lat="44.81529" lon="4.71645">
        <ele>142</ele>
        <time>2011-09-24T11:14:37Z</time>
      </trkpt>
      <trkpt lat="44.81632" lon="4.71803">
        <ele>146</ele>
        <time>2011-09-24T11:15:02Z</time>
      </trkpt>
      <trkpt lat="44.81583" lon="4.72045">
        <ele>150</ele>
        <time>2011-09-24T11:15:29Z</time>
      </trkpt>
      <trkpt lat="44.81537" lon="4.72105">
        <ele>152</ele>
        <time>2011-09-24T11:15:37Z</time>
      </trkpt>
      <trkpt lat="44.81538" lon="4.72125">
        <ele>152</ele>
        <time>2011-09-24T11:15:39Z</time>
      </trkpt>
      <trkpt lat="44.81552" lon="4.72224">
        <ele>153</ele>
        <time>2011-09-24T11:15:49Z</time>
      </trkpt>
      <trkpt lat="44.81603" lon="4.72482">
        <ele>159</ele>
        <time>2011-09-24T11:16:18Z</time>
      </trkpt>
      <trkpt lat="44.81596" lon="4.72656">
        <ele>156</ele>
        <time>2011-09-24T11:16:38Z</time>
      </trkpt>
      <trkpt lat="44.81629" lon="4.72692">
        <ele>156</ele>
        <time>2011-09-24T11:16:44Z</time>
      </trkpt>
      <trkpt lat="44.81744" lon="4.72849">
        <ele>152</ele>
        <time>2011-09-24T11:17:07Z</time>
      </trkpt>
      <trkpt lat="44.81744" lon="4.72884">
        <ele>152</ele>
        <time>2011-09-24T11:17:11Z</time>
      </trkpt>
      <trkpt lat="44.81727" lon="4.72925">
        <ele>152</ele>
        <time>2011-09-24T11:17:16Z</time>
      </trkpt>
      <trkpt lat="44.81709" lon="4.73089">
        <ele>153</ele>
        <time>2011-09-24T11:17:34Z</time>
      </trkpt>
      <trkpt lat="44.81715" lon="4.73125">
        <ele>154</ele>
        <time>2011-09-24T11:17:38Z</time>
      </trkpt>
      <trkpt lat="44.81701" lon="4.73173">
        <ele>154</ele>
        <time>2011-09-24T11:17:44Z</time>
      </trkpt>
      <trkpt lat="44.81712" lon="4.73242">
        <ele>155</ele>
        <time>2011-09-24T11:17:52Z</time>
      </trkpt>
      <trkpt lat="44.81726" lon="4.73263">
        <ele>155</ele>
        <time>2011-09-24T11:17:54Z</time>
      </trkpt>
      <trkpt lat="44.81794" lon="4.73474">
        <ele>151</ele>
        <time>2011-09-24T11:18:18Z</time>
      </trkpt>
      <trkpt lat="44.81771" lon="4.73588">
        <ele>148</ele>
        <time>2011-09-24T11:18:33Z</time>
      </trkpt>
      <trkpt lat="44.81748" lon="4.73648">
        <ele>150</ele>
        <time>2011-09-24T11:18:42Z</time>
      </trkpt>
      <trkpt lat="44.81739" lon="4.7366">
        <ele>150</ele>
        <time>2011-09-24T11:18:44Z</time>
      </trkpt>
      <trkpt lat="44.81737" lon="4.73679">
        <ele>150</ele>
        <time>2011-09-24T11:18:46Z</time>
      </trkpt>
      <trkpt lat="44.81753" lon="4.7393">
        <ele>141</ele>
        <time>2011-09-24T11:19:16Z</time>
      </trkpt>
      <trkpt lat="44.81737" lon="4.7395">
        <ele>140</ele>
        <time>2011-09-24T11:19:21Z</time>
      </trkpt>
      <trkpt lat="44.81648" lon="4.7411">
        <ele>147</ele>
        <time>2011-09-24T11:19:53Z</time>
      </trkpt>
      <trkpt lat="44.81579" lon="4.74322">
        <ele>151</ele>
        <time>2011-09-24T11:20:23Z</time>
      </trkpt>
      <trkpt lat="44.81541" lon="4.74567">
        <ele>148</ele>
        <time>2011-09-24T11:20:55Z</time>
      </trkpt>
      <trkpt lat="44.81545" lon="4.74604">
        <ele>148</ele>
        <time>2011-09-24T11:20:59Z</time>
      </trkpt>
      <trkpt lat="44.81548" lon="4.74704">
        <ele>152</ele>
        <time>2011-09-24T11:21:11Z</time>
      </trkpt>
      <trkpt lat="44.8163" lon="4.74986">
        <ele>149</ele>
        <time>2011-09-24T11:21:42Z</time>
      </trkpt>
      <trkpt lat="44.81743" lon="4.75223">
        <ele>149</ele>
        <time>2011-09-24T11:22:14Z</time>
      </trkpt>
      <trkpt lat="44.81842" lon="4.75471">
        <ele>145</ele>
        <time>2011-09-24T11:22:46Z</time>
      </trkpt>
      <trkpt lat="44.81883" lon="4.75754">
        <ele>146</ele>
        <time>2011-09-24T11:23:18Z</time>
      </trkpt>
      <trkpt lat="44.81878" lon="4.75806">
        <ele>146</ele>
        <time>2011-09-24T11:23:24Z</time>
      </trkpt>
      <trkpt lat="44.81928" lon="4.76076">
        <ele>146</ele>
        <time>2011-09-24T11:23:56Z</time>
      </trkpt>
      <trkpt lat="44.81959" lon="4.76175">
        <ele>144</ele>
        <time>2011-09-24T11:24:09Z</time>
      </trkpt>
      <trkpt lat="44.81982" lon="4.76384">
        <ele>147</ele>
        <time>2011-09-24T11:24:34Z</time>
      </trkpt>
      <trkpt lat="44.81975" lon="4.76407">
        <ele>147</ele>
        <time>2011-09-24T11:24:37Z</time>
      </trkpt>
      <trkpt lat="44.81994" lon="4.7662">
        <ele>148</ele>
        <time>2011-09-24T11:25:01Z</time>
      </trkpt>
      <trkpt lat="44.82048" lon="4.76874">
        <ele>151</ele>
        <time>2011-09-24T11:25:31Z</time>
      </trkpt>
      <trkpt lat="44.82122" lon="4.77144">
        <ele>154</ele>
        <time>2011-09-24T11:26:02Z</time>
      </trkpt>
      <trkpt lat="44.82132" lon="4.77198">
        <ele>155</ele>
        <time>2011-09-24T11:26:09Z</time>
      </trkpt>
      <trkpt lat="44.82134" lon="4.77276">
        <ele>159</ele>
        <time>2011-09-24T11:26:17Z</time>
      </trkpt>
      <trkpt lat="44.82147" lon="4.77469">
        <ele>154</ele>
        <time>2011-09-24T11:26:43Z</time>
      </trkpt>
      <trkpt lat="44.82135" lon="4.77482">
        <ele>154</ele>
        <time>2011-09-24T11:26:46Z</time>
      </trkpt>
      <trkpt lat="44.82117" lon="4.77505">
        <ele>156</ele>
        <time>2011-09-24T11:26:51Z</time>
      </trkpt>
      <trkpt lat="44.82116" lon="4.7752">
        <ele>157</ele>
        <time>2011-09-24T11:26:53Z</time>
      </trkpt>
      <trkpt lat="44.82125" lon="4.77583">
        <ele>157</ele>
        <time>2011-09-24T11:27:01Z</time>
      </trkpt>
      <trkpt lat="44.82179" lon="4.77808">
        <ele>153</ele>
        <time>2011-09-24T11:27:31Z</time>
      </trkpt>
      <trkpt lat="44.8218" lon="4.78065">
        <ele>154</ele>
        <time>2011-09-24T11:28:01Z</time>
      </trkpt>
      <trkpt lat="44.82093" lon="4.78292">
        <ele>151</ele>
        <time>2011-09-24T11:28:31Z</time>
      </trkpt>
      <trkpt lat="44.82031" lon="4.78335">
        <ele>146</ele>
        <time>2011-09-24T11:28:44Z</time>
      </trkpt>
      <trkpt lat="44.82019" lon="4.78343">
        <ele>146</ele>
        <time>2011-09-24T11:28:47Z</time>
      </trkpt>
      <trkpt lat="44.81853" lon="4.78533">
        <ele>150</ele>
        <time>2011-09-24T11:29:19Z</time>
      </trkpt>
      <trkpt lat="44.81714" lon="4.78679">
        <ele>146</ele>
        <time>2011-09-24T11:29:50Z</time>
      </trkpt>
      <trkpt lat="44.81708" lon="4.78697">
        <ele>146</ele>
        <time>2011-09-24T11:30:04Z</time>
      </trkpt>
      <trkpt lat="44.8171" lon="4.78705">
        <ele>143</ele>
        <time>2011-09-24T11:32:02Z</time>
      </trkpt>
      <trkpt lat="44.81712" lon="4.78711">
        <ele>143</ele>
        <time>2011-09-24T11:32:49Z</time>
      </trkpt>
      <trkpt lat="44.81718" lon="4.78718">
        <ele>139</ele>
        <time>2011-09-24T11:34:03Z</time>
      </trkpt>
      <trkpt lat="44.81722" lon="4.78725">
        <ele>139</ele>
        <time>2011-09-24T11:34:05Z</time>
      </trkpt>
      <trkpt lat="44.81749" lon="4.78794">
        <ele>129</ele>
        <time>2011-09-24T11:34:17Z</time>
      </trkpt>
      <trkpt lat="44.81754" lon="4.78797">
        <ele>129</ele>
        <time>2011-09-24T11:34:18Z</time>
      </trkpt>
      <trkpt lat="44.81759" lon="4.78795">
        <ele>128</ele>
        <time>2011-09-24T11:34:19Z</time>
      </trkpt>
      <trkpt lat="44.81764" lon="4.78784">
        <ele>128</ele>
        <time>2011-09-24T11:34:21Z</time>
      </trkpt>
      <trkpt lat="44.81839" lon="4.78683">
        <ele>124</ele>
        <time>2011-09-24T11:34:52Z</time>
      </trkpt>
      <trkpt lat="44.81926" lon="4.78576">
        <ele>124</ele>
        <time>2011-09-24T11:35:22Z</time>
      </trkpt>
      <trkpt lat="44.81935" lon="4.78572">
        <ele>123</ele>
        <time>2011-09-24T11:35:26Z</time>
      </trkpt>
      <trkpt lat="44.82016" lon="4.78641">
        <ele>123</ele>
        <time>2011-09-24T11:35:55Z</time>
      </trkpt>
      <trkpt lat="44.82077" lon="4.78743">
        <ele>123</ele>
        <time>2011-09-24T11:36:25Z</time>
      </trkpt>
      <trkpt lat="44.82152" lon="4.78855">
        <ele>122</ele>
        <time>2011-09-24T11:36:58Z</time>
      </trkpt>
      <trkpt lat="44.8217" lon="4.78874">
        <ele>122</ele>
        <time>2011-09-24T11:37:04Z</time>
      </trkpt>
      <trkpt lat="44.82266" lon="4.78919">
        <ele>121</ele>
        <time>2011-09-24T11:37:35Z</time>
      </trkpt>
      <trkpt lat="44.82381" lon="4.78984">
        <ele>121</ele>
        <time>2011-09-24T11:38:06Z</time>
      </trkpt>
      <trkpt lat="44.82492" lon="4.7907">
        <ele>119</ele>
        <time>2011-09-24T11:38:38Z</time>
      </trkpt>
      <trkpt lat="44.82499" lon="4.79076">
        <ele>119</ele>
        <time>2011-09-24T11:38:40Z</time>
      </trkpt>
      <trkpt lat="44.82504" lon="4.79084">
        <ele>119</ele>
        <time>2011-09-24T11:38:42Z</time>
      </trkpt>
      <trkpt lat="44.82503" lon="4.79092">
        <ele>119</ele>
        <time>2011-09-24T11:38:44Z</time>
      </trkpt>
      <trkpt lat="44.82505" lon="4.79174">
        <ele>121</ele>
        <time>2011-09-24T11:39:00Z</time>
      </trkpt>
      <trkpt lat="44.825" lon="4.79183">
        <ele>121</ele>
        <time>2011-09-24T11:39:02Z</time>
      </trkpt>
      <trkpt lat="44.82494" lon="4.79188">
        <ele>122</ele>
        <time>2011-09-24T11:39:04Z</time>
      </trkpt>
      <trkpt lat="44.82477" lon="4.79227">
        <ele>122</ele>
        <time>2011-09-24T11:39:12Z</time>
      </trkpt>
      <trkpt lat="44.82475" lon="4.7924">
        <ele>122</ele>
        <time>2011-09-24T11:39:14Z</time>
      </trkpt>
      <trkpt lat="44.82438" lon="4.79452">
        <ele>128</ele>
        <time>2011-09-24T11:39:45Z</time>
      </trkpt>
      <trkpt lat="44.82462" lon="4.79536">
        <ele>128</ele>
        <time>2011-09-24T11:39:58Z</time>
      </trkpt>
      <trkpt lat="44.82496" lon="4.79564">
        <ele>128</ele>
        <time>2011-09-24T11:40:06Z</time>
      </trkpt>
      <trkpt lat="44.82499" lon="4.79575">
        <ele>128</ele>
        <time>2011-09-24T11:40:08Z</time>
      </trkpt>
      <trkpt lat="44.82498" lon="4.79595">
        <ele>128</ele>
        <time>2011-09-24T11:40:12Z</time>
      </trkpt>
      <trkpt lat="44.82435" lon="4.79787">
        <ele>133</ele>
        <time>2011-09-24T11:40:43Z</time>
      </trkpt>
      <trkpt lat="44.82353" lon="4.79884">
        <ele>132</ele>
        <time>2011-09-24T11:41:15Z</time>
      </trkpt>
      <trkpt lat="44.82345" lon="4.79893">
        <ele>131</ele>
        <time>2011-09-24T11:41:18Z</time>
      </trkpt>
      <trkpt lat="44.82344" lon="4.79879">
        <ele>130</ele>
        <time>2011-09-24T11:41:26Z</time>
      </trkpt>
      <trkpt lat="44.82373" lon="4.79806">
        <ele>125</ele>
        <time>2011-09-24T11:41:52Z</time>
      </trkpt>
      <trkpt lat="44.82377" lon="4.79803">
        <ele>124</ele>
        <time>2011-09-24T11:41:54Z</time>
      </trkpt>
      <trkpt lat="44.82383" lon="4.79811">
        <ele>123</ele>
        <time>2011-09-24T11:41:57Z</time>
      </trkpt>
      <trkpt lat="44.82392" lon="4.79826">
        <ele>123</ele>
        <time>2011-09-24T11:42:01Z</time>
      </trkpt>
      <trkpt lat="44.82417" lon="4.79875">
        <ele>114</ele>
        <time>2011-09-24T11:42:11Z</time>
      </trkpt>
      <trkpt lat="44.82474" lon="4.79988">
        <ele>114</ele>
        <time>2011-09-24T11:42:33Z</time>
      </trkpt>
      <trkpt lat="44.8247" lon="4.79995">
        <ele>114</ele>
        <time>2011-09-24T11:42:36Z</time>
      </trkpt>
      <trkpt lat="44.82457" lon="4.80004">
        <ele>114</ele>
        <time>2011-09-24T11:42:40Z</time>
      </trkpt>
      <trkpt lat="44.8246" lon="4.79998">
        <ele>114</ele>
        <time>2011-09-24T11:42:45Z</time>
      </trkpt>
      <trkpt lat="44.82466" lon="4.79993">
        <ele>114</ele>
        <time>2011-09-24T11:42:47Z</time>
      </trkpt>
      <trkpt lat="44.82468" lon="4.79987">
        <ele>114</ele>
        <time>2011-09-24T11:42:49Z</time>
      </trkpt>
      <trkpt lat="44.82503" lon="4.79925">
        <ele>114</ele>
        <time>2011-09-24T11:43:09Z</time>
      </trkpt>
      <trkpt lat="44.82532" lon="4.79797">
        <ele>116</ele>
        <time>2011-09-24T11:43:35Z</time>
      </trkpt>
      <trkpt lat="44.82541" lon="4.79791">
        <ele>116</ele>
        <time>2011-09-24T11:43:44Z</time>
      </trkpt>
      <trkpt lat="44.82548" lon="4.79798">
        <ele>116</ele>
        <time>2011-09-24T11:43:48Z</time>
      </trkpt>
      <trkpt lat="44.82552" lon="4.79801">
        <ele>117</ele>
        <time>2011-09-24T11:43:52Z</time>
      </trkpt>
      <trkpt lat="44.8259" lon="4.79794">
        <ele>117</ele>
        <time>2011-09-24T11:44:09Z</time>
      </trkpt>
      <trkpt lat="44.82616" lon="4.79786">
        <ele>118</ele>
        <time>2011-09-24T11:44:24Z</time>
      </trkpt>
      <trkpt lat="44.82624" lon="4.79794">
        <ele>119</ele>
        <time>2011-09-24T11:44:30Z</time>
      </trkpt>
      <trkpt lat="44.82626" lon="4.79803">
        <ele>119</ele>
        <time>2011-09-24T11:44:34Z</time>
      </trkpt>
      <trkpt lat="44.82623" lon="4.79868">
        <ele>120</ele>
        <time>2011-09-24T11:44:50Z</time>
      </trkpt>
      <trkpt lat="44.82626" lon="4.79861">
        <ele>121</ele>
        <time>2011-09-24T11:44:57Z</time>
      </trkpt>
      <trkpt lat="44.82643" lon="4.79734">
        <ele>122</ele>
        <time>2011-09-24T11:45:27Z</time>
      </trkpt>
      <trkpt lat="44.82668" lon="4.79644">
        <ele>123</ele>
        <time>2011-09-24T11:45:56Z</time>
      </trkpt>
      <trkpt lat="44.82661" lon="4.79636">
        <ele>124</ele>
        <time>2011-09-24T11:45:58Z</time>
      </trkpt>
      <trkpt lat="44.82611" lon="4.79602">
        <ele>124</ele>
        <time>2011-09-24T11:46:05Z</time>
      </trkpt>
      <trkpt lat="44.82608" lon="4.79581">
        <ele>125</ele>
        <time>2011-09-24T11:46:07Z</time>
      </trkpt>
      <trkpt lat="44.82616" lon="4.79536">
        <ele>125</ele>
        <time>2011-09-24T11:46:14Z</time>
      </trkpt>
    </trkseg>
  </trk>
</gpx>